M I D A S
Marine Information and Data Acquisition System
Tripno 1130 of the Zeeleeuw from 2006-07-03 08:53:43 to 2006-07-03 12:58:50
Back to CruiseResearch ActivitiesStationsMapUnderway DataData graphs

EquipmentUnitsComment
TimeDGPSUTC
LatitudeDGPSDM.mWGS84
LongitudeDGPSDM.mWGS84
TemperatureSBE03/SBE38deg celciusITS90
ConductivitySBE21S/mITS90
SalinitySBE21 Practical Salinity Units
ChlorophylAChelsea fluorimeterg/lCalibrated in Aceton
Missing or incorrect values are displayed as -999
Sea surface data collected by the RV Zeeleeuw from 2006-07-03 08:50:50 to 2006-07-03 13:09:31
                                                                                    Next 1000 lines
Time Latitude Longitude Temperature Conductivity Salinity ChlorophylA
2006-07-03 08:51:00 51°13.6 2°56.1 24.1599 0.007472 0.039901 5.893212
2006-07-03 08:51:05 51°13.6 2°56.1 24.1574 0.007472 0.039901 5.926922
2006-07-03 08:51:10 51°13.6 2°56.1 24.1671 0.007472 0.0399 5.926922
2006-07-03 08:51:15 51°13.6 2°56.1 24.17 0.007472 0.0399 5.926922
2006-07-03 08:51:20 51°13.6 2°56.1 24.1736 0.007472 0.0399 5.926922
2006-07-03 08:51:25 51°13.6 2°56.1 24.1769 0.007472 0.0399 5.926922
2006-07-03 08:51:30 51°13.6 2°56.1 24.1771 0.007472 0.039899 5.893212
2006-07-03 08:51:34 51°13.599 2°56.1 24.1758 0.007472 0.039899 5.893212
2006-07-03 08:51:40 51°13.599 2°56.1 24.1752 0.007472 0.039899 5.926922
2006-07-03 08:51:45 51°13.599 2°56.1 24.1757 0.007472 0.039899 5.926922
2006-07-03 08:51:50 51°13.599 2°56.1 24.1754 0.007472 0.039899 5.893212
2006-07-03 08:51:55 51°13.599 2°56.1 24.1764 0.007472 0.039898 5.893212
2006-07-03 08:52:00 51°13.599 2°56.1 24.1739 0.007472 0.039898 5.893212
2006-07-03 08:52:04 51°13.599 2°56.1 24.1653 0.007472 0.039898 5.926922
2006-07-03 08:52:10 51°13.599 2°56.1 24.1261 0.007472 0.039898 5.859503
2006-07-03 08:52:15 51°13.599 2°56.099 24.1335 0.007472 0.039898 5.859503
2006-07-03 08:52:20 51°13.599 2°56.098 24.0826 0.007472 0.039897 5.893212
2006-07-03 08:52:25 51°13.599 2°56.096 24.077 0.007472 0.039897 5.926922
2006-07-03 08:52:30 51°13.6 2°56.094 24.0755 0.007472 0.039896 5.893212
2006-07-03 08:52:35 51°13.601 2°56.09 24.1816 0.007472 0.039896 5.893212
2006-07-03 08:52:40 51°13.602 2°56.085 24.198 0.007472 0.039896 5.893212
2006-07-03 08:52:45 51°13.603 2°56.08 24.1759 0.007472 0.039896 5.893212
2006-07-03 08:52:51 51°13.605 2°56.072 24.1806 0.007472 0.039895 5.859503
2006-07-03 08:52:56 51°13.607 2°56.066 24.1232 0.007472 0.039895 5.926922
2006-07-03 08:53:01 51°13.609 2°56.058 24.1839 0.007472 0.039895 5.926922
2006-07-03 08:53:06 51°13.611 2°56.05 24.173 0.007472 0.039894 5.893212
2006-07-03 08:53:10 51°13.613 2°56.043 24.1763 0.007472 0.039894 5.893212
2006-07-03 08:53:16 51°13.616 2°56.033 24.1765 0.007472 0.039894 5.893212
2006-07-03 08:53:21 51°13.618 2°56.024 24.1956 0.007472 0.039894 5.893212
2006-07-03 08:53:26 51°13.62 2°56.014 24.2076 0.007472 0.039894 5.893212
2006-07-03 08:53:31 51°13.623 2°56.005 24.2089 0.007472 0.039893 5.893212
2006-07-03 08:53:35 51°13.625 2°55.997 24.2039 0.007472 0.039893 5.893212
2006-07-03 08:53:41 51°13.628 2°55.985 24.1927 0.007472 0.039893 5.926922
2006-07-03 08:53:46 51°13.631 2°55.975 24.2074 0.007472 0.039893 5.926922
2006-07-03 08:53:51 51°13.635 2°55.964 24.1963 0.007472 0.039892 5.926922
2006-07-03 08:53:56 51°13.638 2°55.954 24.2022 0.007472 0.039892 5.893212
2006-07-03 08:54:01 51°13.642 2°55.943 24.2163 0.007472 0.039891 5.893212
2006-07-03 08:54:06 51°13.646 2°55.933 24.2124 0.007472 0.039891 5.893212
2006-07-03 08:54:11 51°13.649 2°55.922 24.2381 0.007472 0.039891 5.926922
2006-07-03 08:54:16 51°13.653 2°55.911 24.219 0.007472 0.039891 5.926922
2006-07-03 08:54:21 51°13.657 2°55.901 24.2146 0.007472 0.03989 5.893212
2006-07-03 08:54:26 51°13.661 2°55.89 24.2107 0.007472 0.03989 5.926922
2006-07-03 08:54:31 51°13.665 2°55.88 24.2119 0.007472 0.03989 5.926922
2006-07-03 08:54:36 51°13.668 2°55.869 24.2109 0.007472 0.039889 5.893212
2006-07-03 08:54:41 51°13.672 2°55.859 24.2071 0.007472 0.039889 5.926922
2006-07-03 08:54:46 51°13.675 2°55.848 24.2169 0.007472 0.039889 5.926922
2006-07-03 08:54:50 51°13.678 2°55.839 24.2261 0.007472 0.039889 5.893212
2006-07-03 08:54:55 51°13.681 2°55.829 24.2199 0.007472 0.039888 5.893212
2006-07-03 08:55:01 51°13.684 2°55.818 24.2154 0.007472 0.039888 5.893212
2006-07-03 08:55:06 51°13.687 2°55.809 24.1785 0.007472 0.039887 5.926922
2006-07-03 08:55:10 51°13.689 2°55.802 24.2079 0.007472 0.039887 5.893212
2006-07-03 08:55:15 51°13.691 2°55.794 24.211 0.007472 0.039887 5.893212
2006-07-03 08:55:20 51°13.693 2°55.785 24.2083 0.007472 0.039886 5.893212
2006-07-03 08:55:25 51°13.694 2°55.778 24.1958 0.007472 0.039886 5.926922
2006-07-03 08:55:30 51°13.696 2°55.771 24.183 0.007472 0.039886 5.859503
2006-07-03 08:55:35 51°13.697 2°55.765 24.2082 0.007472 0.039885 5.893212
2006-07-03 08:55:40 51°13.698 2°55.761 24.2308 0.007472 0.039885 5.893212
2006-07-03 08:55:45 51°13.699 2°55.757 24.2553 0.007472 0.039885 5.893212
2006-07-03 08:55:50 51°13.699 2°55.756 24.2376 0.007472 0.039885 5.893212
2006-07-03 08:55:55 51°13.7 2°55.755 24.2223 0.007472 0.039885 5.893212
2006-07-03 08:56:00 51°13.7 2°55.755 24.2086 0.007472 0.039884 5.893212
2006-07-03 08:56:04 51°13.701 2°55.755 24.208 0.007472 0.039884 5.893212
2006-07-03 08:56:10 51°13.702 2°55.755 24.2056 0.007472 0.039883 5.926922
2006-07-03 08:56:15 51°13.703 2°55.756 24.201 0.007472 0.039883 5.926922
2006-07-03 08:56:20 51°13.704 2°55.757 24.1613 0.007472 0.039883 5.893212
2006-07-03 08:56:25 51°13.705 2°55.758 24.1676 0.007472 0.039883 5.926922
2006-07-03 08:56:30 51°13.706 2°55.758 24.1641 0.007472 0.039883 5.893212
2006-07-03 08:56:33 51°13.706 2°55.758 24.1585 0.007472 0.039882 5.926922
2006-07-03 08:56:40 51°13.706 2°55.756 24.1376 0.007472 0.039881 5.893212
2006-07-03 08:56:45 51°13.705 2°55.755 24.1417 0.007472 0.039881 5.893212
2006-07-03 08:56:50 51°13.704 2°55.753 24.1791 0.007472 0.039881 5.893212
2006-07-03 08:56:55 51°13.703 2°55.751 24.1899 0.007472 0.039881 5.926922
2006-07-03 08:57:00 51°13.701 2°55.749 24.2243 0.007472 0.03988 5.926922
2006-07-03 08:57:05 51°13.7 2°55.746 24.2212 0.007472 0.03988 5.893212
2006-07-03 08:57:11 51°13.698 2°55.744 24.209 0.007472 0.039879 5.893212
2006-07-03 08:57:16 51°13.696 2°55.742 24.208 0.007472 0.039879 5.893212
2006-07-03 08:57:21 51°13.696 2°55.741 24.2184 0.007472 0.039879 5.893212
2006-07-03 08:57:26 51°13.695 2°55.74 24.2413 0.007472 0.039879 5.926922
2006-07-03 08:57:30 51°13.695 2°55.74 24.2499 0.007472 0.039879 5.893212
2006-07-03 08:57:36 51°13.696 2°55.739 24.2542 0.007472 0.039878 5.926922
2006-07-03 08:57:41 51°13.698 2°55.739 24.2842 0.007472 0.039878 5.893212
2006-07-03 08:57:46 51°13.699 2°55.738 24.3079 0.007472 0.039878 5.893212
2006-07-03 08:57:50 51°13.701 2°55.737 24.3117 0.007472 0.039878 5.893212
2006-07-03 08:57:56 51°13.705 2°55.734 24.3085 0.007472 0.039878 5.926922
2006-07-03 08:58:01 51°13.709 2°55.731 24.2778 0.007472 0.039877 5.893212
2006-07-03 08:58:06 51°13.714 2°55.728 24.234 0.007472 0.039877 5.893212
2006-07-03 08:58:10 51°13.719 2°55.724 24.2139 0.007472 0.039876 5.926922
2006-07-03 08:58:15 51°13.725 2°55.719 24.1761 0.007472 0.039876 5.926922
2006-07-03 08:58:20 51°13.732 2°55.713 24.1391 0.007472 0.039875 5.926922
2006-07-03 08:58:25 51°13.74 2°55.707 24.122 0.007472 0.039875 5.893212
2006-07-03 08:58:30 51°13.748 2°55.7 24.1156 0.007472 0.039875 5.893212
2006-07-03 08:58:34 51°13.755 2°55.694 24.1131 0.007472 0.039875 5.926922
2006-07-03 08:58:40 51°13.766 2°55.684 24.076 0.007472 0.039874 5.893212
2006-07-03 08:58:45 51°13.775 2°55.676 24.0728 0.007472 0.039874 5.893212
2006-07-03 08:58:50 51°13.785 2°55.668 24.062 0.007472 0.039874 5.926922
2006-07-03 08:58:54 51°13.793 2°55.661 24.0464 0.007472 0.039874 5.893212
2006-07-03 08:59:00 51°13.805 2°55.65 23.9974 0.007472 0.039873 5.926922
2006-07-03 08:59:05 51°13.816 2°55.641 23.9664 0.007472 0.039873 5.926922
2006-07-03 08:59:10 51°13.826 2°55.633 23.9847 0.007472 0.039873 5.893212
2006-07-03 08:59:15 51°13.837 2°55.624 24.0157 0.007472 0.039873 5.893212
2006-07-03 08:59:19 51°13.845 2°55.618 24.0451 0.007472 0.039872 5.926922
2006-07-03 08:59:25 51°13.857 2°55.609 24.0642 0.007472 0.039872 5.893212
2006-07-03 08:59:30 51°13.867 2°55.601 24.1203 0.007472 0.039872 5.926922
2006-07-03 08:59:35 51°13.877 2°55.593 24.1255 0.007472 0.039872 5.893212
2006-07-03 08:59:40 51°13.887 2°55.586 24.114 0.007472 0.039872 5.893212
2006-07-03 08:59:45 51°13.897 2°55.579 24.1163 0.007472 0.039872 5.893212
2006-07-03 08:59:50 51°13.907 2°55.572 24.1209 0.007472 0.039872 5.893212
2006-07-03 08:59:55 51°13.916 2°55.565 24.1293 0.007472 0.039871 5.893212
2006-07-03 09:00:00 51°13.926 2°55.558 24.1436 0.007472 0.039871 5.926922
2006-07-03 09:00:05 51°13.936 2°55.551 24.1895 0.007472 0.03987 5.859503
2006-07-03 09:00:10 51°13.946 2°55.544 24.1608 0.007472 0.03987 5.926922
2006-07-03 09:00:15 51°13.955 2°55.537 24.1656 0.007472 0.03987 5.926922
2006-07-03 09:00:20 51°13.965 2°55.53 24.158 0.007472 0.03987 5.893212
2006-07-03 09:00:25 51°13.974 2°55.523 24.1594 0.007472 0.03987 5.926922
2006-07-03 09:00:30 51°13.984 2°55.516 24.1604 0.007472 0.03987 5.926922
2006-07-03 09:00:34 51°13.992 2°55.51 24.1602 0.007472 0.039869 5.893212
2006-07-03 09:00:40 51°14.003 2°55.502 24.1696 0.007472 0.039869 5.926922
2006-07-03 09:00:45 51°14.013 2°55.496 24.1779 0.007472 0.039869 5.926922
2006-07-03 09:00:50 51°14.022 2°55.489 24.1846 0.007472 0.039869 5.893212
2006-07-03 09:00:54 51°14.03 2°55.483 24.1885 0.007472 0.039869 5.926922
2006-07-03 09:01:00 51°14.041 2°55.475 24.1836 0.007472 0.039868 5.893212
2006-07-03 09:01:04 51°14.049 2°55.469 24.1791 0.007472 0.039868 5.926922
2006-07-03 09:01:10 51°14.061 2°55.461 24.179 0.007472 0.039868 5.893212
2006-07-03 09:01:14 51°14.069 2°55.456 24.189 0.007472 0.039868 5.893212
2006-07-03 09:01:20 51°14.081 2°55.447 24.1924 0.007472 0.039868 5.893212
2006-07-03 09:01:25 51°14.091 2°55.44 24.1875 0.007472 0.039867 5.926922
2006-07-03 09:01:30 51°14.102 2°55.432 24.1873 0.007472 0.039867 5.893212
2006-07-03 09:01:35 51°14.112 2°55.425 24.1916 0.007472 0.039867 5.893212
2006-07-03 09:01:40 51°14.123 2°55.417 24.2065 0.007472 0.039867 5.893212
2006-07-03 09:01:45 51°14.134 2°55.408 24.2198 0.007472 0.039867 5.893212
2006-07-03 09:01:50 51°14.145 2°55.4 24.219 0.007472 0.039866 5.893212
2006-07-03 09:01:56 51°14.159 2°55.389 24.2239 0.007472 0.039866 5.926922
2006-07-03 09:02:00 51°14.168 2°55.381 24.2227 0.007472 0.039866 5.893212
2006-07-03 09:02:05 51°14.179 2°55.371 24.2028 0.007472 0.039866 5.893212
2006-07-03 09:02:10 51°14.191 2°55.36 24.2237 0.007472 0.039865 5.893212
2006-07-03 09:02:15 51°14.202 2°55.349 24.2529 0.007472 0.039865 5.893212
2006-07-03 09:02:20 51°14.213 2°55.337 24.2374 0.007472 0.039865 5.893212
2006-07-03 09:02:25 51°14.224 2°55.324 24.2091 0.007472 0.039865 5.926922
2006-07-03 09:02:30 51°14.234 2°55.31 24.1946 0.007472 0.039865 5.926922
2006-07-03 09:02:34 51°14.243 2°55.299 24.2015 0.007472 0.039864 5.926922
2006-07-03 09:02:40 51°14.255 2°55.282 24.2348 0.007472 0.039864 5.893212
2006-07-03 09:02:45 51°14.265 2°55.267 24.233 0.007472 0.039864 5.893212
2006-07-03 09:02:50 51°14.274 2°55.251 24.2397 0.007472 0.039864 5.926922
2006-07-03 09:02:55 51°14.283 2°55.235 24.2303 0.007472 0.039864 5.926922
2006-07-03 09:03:00 51°14.292 2°55.218 24.2283 0.007472 0.039864 5.926922
2006-07-03 09:03:05 51°14.301 2°55.201 24.2355 0.007472 0.039863 5.893212
2006-07-03 09:03:10 51°14.309 2°55.183 24.2157 0.007472 0.039863 5.926922
2006-07-03 09:03:15 51°14.317 2°55.164 24.1434 0.007472 0.039863 5.926922
2006-07-03 09:03:20 51°14.325 2°55.145 24.0426 0.007472 0.039863 5.893212
2006-07-03 09:03:25 51°14.333 2°55.126 24.0678 0.007472 0.039863 5.893212
2006-07-03 09:03:30 51°14.341 2°55.106 24.0871 0.007472 0.039863 5.893212
2006-07-03 09:03:35 51°14.349 2°55.087 24.0723 0.007472 0.039862 5.893212
2006-07-03 09:03:40 51°14.358 2°55.067 24.1581 0.007472 0.039862 5.926922
2006-07-03 09:03:45 51°14.367 2°55.047 24.1155 0.007472 0.039862 5.926922
2006-07-03 09:03:50 51°14.375 2°55.027 24.1836 0.007472 0.039862 5.893212
2006-07-03 09:03:55 51°14.384 2°55.007 24.1918 0.007472 0.039862 5.926922
2006-07-03 09:04:00 51°14.393 2°54.985 24.1943 0.007472 0.039861 5.893212
2006-07-03 09:04:05 51°14.402 2°54.963 24.0524 0.007472 0.039861 5.926922
2006-07-03 09:04:10 51°14.41 2°54.941 24.0432 0.007472 0.039861 5.926922
2006-07-03 09:04:15 51°14.42 2°54.918 24.1043 0.007472 0.039861 5.926922
2006-07-03 09:04:20 51°14.429 2°54.895 24.0232 0.007472 0.039861 5.893212
2006-07-03 09:04:25 51°14.439 2°54.872 24.0354 0.007472 0.039861 5.893212
2006-07-03 09:04:30 51°14.45 2°54.85 24.056 0.007472 0.03986 5.926922
2006-07-03 09:04:34 51°14.459 2°54.833 24.1273 0.007472 0.03986 5.926922
2006-07-03 09:04:40 51°14.473 2°54.807 24.0812 0.007472 0.03986 5.859503
2006-07-03 09:04:45 51°14.485 2°54.786 23.9692 0.007472 0.03986 5.859503
2006-07-03 09:04:50 51°14.497 2°54.766 24.0324 0.007472 0.039859 5.926922
2006-07-03 09:04:55 51°14.51 2°54.748 24.0418 0.007472 0.039859 5.926922
2006-07-03 09:05:00 51°14.524 2°54.73 24.1472 0.007472 0.039859 5.893212
2006-07-03 09:05:05 51°14.538 2°54.714 24.0378 0.007472 0.039859 5.893212
2006-07-03 09:05:09 51°14.549 2°54.7 24.0203 0.007472 0.039859 5.893212
2006-07-03 09:05:14 51°14.564 2°54.686 24.0159 0.007472 0.039859 5.893212
2006-07-03 09:05:19 51°14.579 2°54.672 24.0608 0.007472 0.039858 5.926922
2006-07-03 09:05:25 51°14.598 2°54.658 24.0448 0.007472 0.039858 5.926922
2006-07-03 09:05:30 51°14.614 2°54.647 24.0659 0.007472 0.039858 5.926922
2006-07-03 09:05:34 51°14.627 2°54.64 24.0483 0.007472 0.039858 5.926922
2006-07-03 09:05:40 51°14.646 2°54.63 24.1189 0.007472 0.039858 5.926922
2006-07-03 09:05:45 51°14.663 2°54.624 24.1393 0.007472 0.039858 5.926922
2006-07-03 09:05:50 51°14.68 2°54.619 24.1658 0.007472 0.039857 5.893212
2006-07-03 09:05:55 51°14.697 2°54.614 24.1317 0.007472 0.039857 5.893212
2006-07-03 09:06:00 51°14.714 2°54.609 24.0939 0.007472 0.039857 5.926922
2006-07-03 09:06:05 51°14.73 2°54.604 24.0861 0.007472 0.039857 5.926922
2006-07-03 09:06:10 51°14.748 2°54.6 24.095 0.007472 0.039857 5.926922
2006-07-03 09:06:15 51°14.764 2°54.596 24.1209 0.007472 0.039857 5.926922
2006-07-03 09:06:20 51°14.782 2°54.593 24.14 0.007472 0.039856 5.893212
2006-07-03 09:06:25 51°14.799 2°54.591 24.1436 0.007472 0.039856 5.926922
2006-07-03 09:06:30 51°14.816 2°54.588 24.1416 0.007472 0.039856 5.893212
2006-07-03 09:06:34 51°14.829 2°54.586 24.1641 0.007472 0.039856 5.926922
2006-07-03 09:06:40 51°14.85 2°54.583 24.1551 0.007472 0.039856 5.893212
2006-07-03 09:06:45 51°14.867 2°54.58 24.1213 0.007472 0.039856 5.893212
2006-07-03 09:06:50 51°14.884 2°54.578 24.1586 0.007472 0.039856 5.926922
2006-07-03 09:06:55 51°14.901 2°54.575 24.1224 0.007472 0.039856 5.926922
2006-07-03 09:07:00 51°14.918 2°54.572 24.1752 0.007472 0.039856 5.893212
2006-07-03 09:07:04 51°14.931 2°54.57 24.1581 0.007472 0.039856 5.926922
2006-07-03 09:07:09 51°14.948 2°54.567 24.1775 0.007472 0.039855 5.893212
2006-07-03 09:07:15 51°14.969 2°54.564 24.1707 0.007472 0.039855 5.893212
2006-07-03 09:07:20 51°14.986 2°54.561 24.1258 0.007472 0.039855 5.926922
2006-07-03 09:07:25 51°15.003 2°54.557 24.1455 0.007472 0.039855 5.926922
2006-07-03 09:07:30 51°15.02 2°54.554 24.1674 0.007472 0.039855 5.926922
2006-07-03 09:07:35 51°15.037 2°54.551 24.1527 0.007472 0.039855 5.926922
2006-07-03 09:07:40 51°15.054 2°54.548 24.1479 0.007472 0.039855 5.926922
2006-07-03 09:07:45 51°15.07 2°54.545 24.1626 0.007472 0.039855 5.926922
2006-07-03 09:07:50 51°15.087 2°54.542 24.1445 0.007472 0.039855 5.926922
2006-07-03 09:07:55 51°15.104 2°54.539 24.1284 0.007472 0.039855 5.926922
2006-07-03 09:08:00 51°15.121 2°54.537 24.1958 0.007472 0.039855 5.926922
2006-07-03 09:08:05 51°15.138 2°54.534 24.189 0.007472 0.039855 5.926922
2006-07-03 09:08:10 51°15.155 2°54.531 24.1721 0.007472 0.039855 5.926922
2006-07-03 09:08:15 51°15.172 2°54.528 24.1588 0.007472 0.039855 5.926922
2006-07-03 09:08:20 51°15.189 2°54.525 24.1648 0.007472 0.039855 5.893212
2006-07-03 09:08:25 51°15.206 2°54.523 24.1663 0.007472 0.039855 5.960631
2006-07-03 09:08:30 51°15.224 2°54.52 24.1832 0.007472 0.039855 5.893212
2006-07-03 09:08:34 51°15.237 2°54.518 24.2037 0.007472 0.039855 5.926922
2006-07-03 09:08:39 51°15.254 2°54.515 24.1642 0.007472 0.039855 5.926922
2006-07-03 09:08:45 51°15.275 2°54.511 24.1719 0.007472 0.039855 5.926922
2006-07-03 09:08:50 51°15.292 2°54.507 24.1918 0.007472 0.039855 5.926922
2006-07-03 09:08:55 51°15.309 2°54.504 24.1704 0.007472 0.039856 5.926922
2006-07-03 09:09:00 51°15.326 2°54.501 24.194 0.007472 0.039856 5.893212
2006-07-03 09:09:05 51°15.343 2°54.497 24.211 0.007472 0.039856 5.926922
2006-07-03 09:09:10 51°15.36 2°54.493 24.2086 0.007472 0.039856 5.893212
2006-07-03 09:09:15 51°15.377 2°54.49 24.1801 0.007472 0.039856 5.893212
2006-07-03 09:09:20 51°15.394 2°54.486 24.1926 0.007472 0.039856 5.926922
2006-07-03 09:09:25 51°15.411 2°54.482 24.173 0.007472 0.039856 5.893212
2006-07-03 09:09:30 51°15.428 2°54.477 24.1637 0.007472 0.039857 5.926922
2006-07-03 09:09:35 51°15.444 2°54.473 24.1436 0.007472 0.039857 5.926922
2006-07-03 09:09:40 51°15.461 2°54.47 24.1717 0.007472 0.039857 5.926922
2006-07-03 09:09:45 51°15.478 2°54.466 24.1744 0.007472 0.039857 5.926922
2006-07-03 09:09:50 51°15.495 2°54.462 24.2041 0.007472 0.039857 5.926922
2006-07-03 09:09:55 51°15.512 2°54.459 24.1897 0.007472 0.039857 5.893212
2006-07-03 09:10:00 51°15.529 2°54.456 24.2055 0.007472 0.039857 5.926922
2006-07-03 09:10:05 51°15.546 2°54.452 24.2251 0.007472 0.039858 5.893212
2006-07-03 09:10:10 51°15.563 2°54.449 24.1872 0.007472 0.039858 5.926922
2006-07-03 09:10:15 51°15.58 2°54.445 24.2006 0.007472 0.039858 5.926922
2006-07-03 09:10:20 51°15.597 2°54.442 24.1776 0.007472 0.039858 5.893212
2006-07-03 09:10:25 51°15.614 2°54.438 24.2143 0.007472 0.039858 5.926922
2006-07-03 09:10:30 51°15.631 2°54.434 24.1937 0.007472 0.039859 5.926922
2006-07-03 09:10:34 51°15.644 2°54.431 24.2021 0.007472 0.039859 5.926922
2006-07-03 09:10:39 51°15.661 2°54.427 24.1878 0.007472 0.039859 5.960631
2006-07-03 09:10:45 51°15.682 2°54.423 24.2175 0.007472 0.039859 5.960631
2006-07-03 09:10:50 51°15.699 2°54.419 24.2185 0.007472 0.03986 5.926922
2006-07-03 09:10:54 51°15.712 2°54.416 24.2196 0.007472 0.03986 5.893212
2006-07-03 09:11:00 51°15.733 2°54.411 24.2061 0.007472 0.039861 5.926922
2006-07-03 09:11:05 51°15.75 2°54.407 24.2274 0.007472 0.039861 5.926922
2006-07-03 09:11:10 51°15.767 2°54.403 24.203 0.007472 0.039861 5.926922
2006-07-03 09:11:15 51°15.784 2°54.399 24.2366 0.007472 0.039861 5.926922
2006-07-03 09:11:20 51°15.801 2°54.396 24.1845 0.007472 0.039862 5.926922
2006-07-03 09:11:25 51°15.818 2°54.392 24.2104 0.007472 0.039862 5.926922
2006-07-03 09:11:30 51°15.835 2°54.387 24.2248 0.007472 0.039863 5.926922
2006-07-03 09:11:34 51°15.849 2°54.384 24.2126 0.007472 0.039863 5.893212
2006-07-03 09:11:40 51°15.869 2°54.379 24.2071 0.007472 0.039863 5.960631
2006-07-03 09:11:45 51°15.886 2°54.375 24.2171 0.007472 0.039863 5.960631
2006-07-03 09:11:50 51°15.903 2°54.371 24.2243 0.007472 0.039864 5.960631
2006-07-03 09:11:55 51°15.92 2°54.367 24.1237 0.007472 0.039864 5.926922
2006-07-03 09:12:00 51°15.937 2°54.363 24.1654 0.007472 0.039864 5.893212
2006-07-03 09:12:05 51°15.952 2°54.359 24.2353 0.007472 0.039865 5.926922
2006-07-03 09:12:10 51°15.966 2°54.355 24.2489 0.007472 0.039866 5.926922
2006-07-03 09:12:14 51°15.976 2°54.353 24.2686 0.007472 0.039866 5.926922
2006-07-03 09:12:20 51°15.99 2°54.351 24.2649 0.007472 0.039866 5.926922
2006-07-03 09:12:25 51°16.001 2°54.348 24.2924 0.007472 0.039866 5.960631
2006-07-03 09:12:30 51°16.012 2°54.346 24.2771 0.007472 0.039867 5.960631
2006-07-03 09:12:34 51°16.02 2°54.345 24.2943 0.007472 0.039867 5.926922
2006-07-03 09:12:40 51°16.03 2°54.346 24.29 0.007472 0.039868 5.926922
2006-07-03 09:12:45 51°16.038 2°54.347 24.31 0.007472 0.039868 5.926922
2006-07-03 09:12:50 51°16.046 2°54.348 24.3073 0.007472 0.039868 5.926922
2006-07-03 09:12:55 51°16.053 2°54.35 24.3156 0.007472 0.039869 5.926922
2006-07-03 09:13:00 51°16.06 2°54.352 24.3124 0.007472 0.039869 5.926922
2006-07-03 09:13:05 51°16.066 2°54.354 24.3146 0.007472 0.039869 5.926922
2006-07-03 09:13:10 51°16.072 2°54.357 24.3079 0.007472 0.03987 5.893212
2006-07-03 09:13:14 51°16.076 2°54.359 24.3212 0.007472 0.03987 5.893212
2006-07-03 09:13:20 51°16.082 2°54.363 24.3254 0.007472 0.03987 5.926922
2006-07-03 09:13:25 51°16.087 2°54.365 24.3243 0.007472 0.03987 5.960631
2006-07-03 09:13:30 51°16.091 2°54.368 24.3322 0.007472 0.039871 5.926922
2006-07-03 09:13:34 51°16.095 2°54.37 24.3308 0.007472 0.039872 5.926922
2006-07-03 09:13:40 51°16.1 2°54.374 24.3216 0.007472 0.039872 5.893212
2006-07-03 09:13:45 51°16.103 2°54.377 24.3047 0.007472 0.039872 5.893212
2006-07-03 09:13:50 51°16.107 2°54.38 24.3019 0.007472 0.039872 5.926922
2006-07-03 09:13:55 51°16.11 2°54.382 24.2907 0.007472 0.039873 5.926922
2006-07-03 09:14:00 51°16.114 2°54.385 24.3016 0.007472 0.039873 5.893212
2006-07-03 09:14:05 51°16.117 2°54.388 24.2929 0.007472 0.039874 5.926922
2006-07-03 09:14:10 51°16.12 2°54.39 24.2835 0.007472 0.039874 5.926922
2006-07-03 09:14:15 51°16.123 2°54.393 24.2895 0.007472 0.039874 5.926922
2006-07-03 09:14:20 51°16.125 2°54.396 24.317 0.007472 0.039875 5.926922
2006-07-03 09:14:24 51°16.127 2°54.398 24.3133 0.007472 0.039875 5.893212
2006-07-03 09:14:30 51°16.13 2°54.401 24.3127 0.007472 0.039875 5.926922
2006-07-03 09:14:34 51°16.132 2°54.402 24.3236 0.007472 0.039876 5.926922
2006-07-03 09:14:40 51°16.135 2°54.405 24.3195 0.007472 0.039876 5.926922
2006-07-03 09:14:45 51°16.137 2°54.408 24.3133 0.007472 0.039876 5.926922
2006-07-03 09:14:50 51°16.139 2°54.41 24.3065 0.007472 0.039876 5.926922
2006-07-03 09:14:54 51°16.141 2°54.412 24.3216 0.007472 0.039877 5.926922
2006-07-03 09:15:00 51°16.143 2°54.415 24.3195 0.007472 0.039877 5.960631
2006-07-03 09:15:03 51°16.144 2°54.416 24.3227 0.007472 0.039877 5.893212
2006-07-03 09:15:10 51°16.146 2°54.419 24.3013 0.007472 0.039878 5.926922
2006-07-03 09:15:14 51°16.148 2°54.421 24.3221 0.007472 0.039878 5.926922
2006-07-03 09:15:19 51°16.15 2°54.423 24.3146 0.007472 0.039878 5.926922
2006-07-03 09:15:25 51°16.152 2°54.425 24.3262 0.007472 0.039878 5.926922
2006-07-03 09:15:30 51°16.153 2°54.427 24.3387 0.007472 0.039878 5.926922
2006-07-03 09:15:35 51°16.155 2°54.429 24.3426 0.007472 0.039879 5.926922
2006-07-03 09:15:40 51°16.156 2°54.43 24.3379 0.007472 0.039879 5.893212
2006-07-03 09:15:45 51°16.158 2°54.432 24.3516 0.007472 0.039879 5.893212
2006-07-03 09:15:50 51°16.159 2°54.434 24.3444 0.007472 0.039879 5.893212
2006-07-03 09:15:55 51°16.16 2°54.435 24.3401 0.007472 0.039881 5.926922
2006-07-03 09:16:00 51°16.161 2°54.437 24.3467 0.007472 0.03988 5.960631
2006-07-03 09:16:05 51°16.162 2°54.438 24.3497 0.007472 0.039879 5.960631
2006-07-03 09:16:10 51°16.164 2°54.439 24.3311 0.007472 0.039879 5.926922
2006-07-03 09:16:15 51°16.165 2°54.441 24.3149 0.007472 0.039879 5.926922
2006-07-03 09:16:20 51°16.166 2°54.442 24.3201 0.007472 0.03988 5.926922
2006-07-03 09:16:25 51°16.167 2°54.443 24.3191 0.007472 0.03988 5.893212
2006-07-03 09:16:30 51°16.168 2°54.444 24.3561 0.007472 0.03988 5.960631
2006-07-03 09:16:35 51°16.169 2°54.446 24.362 0.007472 0.039881 5.926922
2006-07-03 09:16:40 51°16.17 2°54.447 24.3516 0.007472 0.039881 5.960631
2006-07-03 09:16:45 51°16.171 2°54.448 24.3468 0.007472 0.039881 5.960631
2006-07-03 09:16:50 51°16.173 2°54.449 24.3452 0.007472 0.039881 5.926922
2006-07-03 09:16:55 51°16.173 2°54.45 24.3512 0.007472 0.039881 5.960631
2006-07-03 09:17:00 51°16.174 2°54.451 24.3343 0.007472 0.039881 5.926922
2006-07-03 09:17:05 51°16.175 2°54.452 24.3428 0.007472 0.039882 5.926922
2006-07-03 09:17:10 51°16.176 2°54.453 24.3507 0.007472 0.039882 5.926922
2006-07-03 09:17:15 51°16.177 2°54.454 24.3443 0.007472 0.039882 5.926922
2006-07-03 09:17:20 51°16.178 2°54.455 24.3368 0.007472 0.039882 5.926922
2006-07-03 09:17:25 51°16.179 2°54.455 24.3488 0.007472 0.039882 5.926922
2006-07-03 09:17:30 51°16.179 2°54.456 24.356 0.007472 0.039883 5.960631
2006-07-03 09:17:34 51°16.18 2°54.457 24.3644 0.007472 0.039883 5.926922
2006-07-03 09:17:40 51°16.181 2°54.458 24.3596 0.007472 0.039883 5.926922
2006-07-03 09:17:45 51°16.182 2°54.458 24.3477 0.007472 0.039883 5.926922
2006-07-03 09:17:50 51°16.182 2°54.459 24.3666 0.007472 0.039883 5.893212
2006-07-03 09:17:55 51°16.183 2°54.459 24.3719 0.007472 0.039883 5.926922
2006-07-03 09:18:00 51°16.183 2°54.46 24.3436 0.007472 0.039883 5.926922
2006-07-03 09:18:05 51°16.184 2°54.46 24.366 0.007472 0.039883 5.926922
2006-07-03 09:18:10 51°16.185 2°54.461 24.3562 0.007472 0.039883 5.893212
2006-07-03 09:18:15 51°16.185 2°54.461 24.3569 0.007472 0.039883 5.893212
2006-07-03 09:18:20 51°16.186 2°54.462 24.3699 0.007472 0.039883 5.960631
2006-07-03 09:18:25 51°16.186 2°54.462 24.384 0.007472 0.039884 5.926922
2006-07-03 09:18:30 51°16.187 2°54.462 24.3658 0.007472 0.039884 5.926922
2006-07-03 09:18:34 51°16.187 2°54.463 24.3506 0.007472 0.039883 5.893212
2006-07-03 09:18:40 51°16.187 2°54.463 24.3418 0.007472 0.039884 5.960631
2006-07-03 09:18:44 51°16.188 2°54.463 24.3629 0.007472 0.039884 5.960631
2006-07-03 09:18:50 51°16.188 2°54.464 24.3693 0.007472 0.039883 5.926922
2006-07-03 09:18:54 51°16.189 2°54.464 24.3739 0.007472 0.039883 5.960631
2006-07-03 09:18:59 51°16.189 2°54.464 24.3785 0.007472 0.039884 5.926922
2006-07-03 09:19:06 51°16.189 2°54.465 24.3854 0.007472 0.039883 5.893212
2006-07-03 09:19:10 51°16.19 2°54.465 24.3736 0.007472 0.039883 5.960631
2006-07-03 09:19:14 51°16.19 2°54.465 24.3667 0.007472 0.039883 5.960631
2006-07-03 09:19:20 51°16.19 2°54.465 24.3767 0.007472 0.039884 5.960631
2006-07-03 09:19:25 51°16.191 2°54.465 24.3858 0.007472 0.039883 5.926922
2006-07-03 09:19:30 51°16.191 2°54.465 24.3807 0.007472 0.039883 5.926922
2006-07-03 09:19:35 51°16.191 2°54.465 24.3911 0.007472 0.039883 5.960631
2006-07-03 09:19:40 51°16.191 2°54.465 24.3927 0.007472 0.039883 5.926922
2006-07-03 09:19:43 51°16.191 2°54.466 24.3977 0.007472 0.039883 5.926922
2006-07-03 09:19:50 51°16.192 2°54.465 24.3782 0.007472 0.039883 5.960631
2006-07-03 09:19:54 51°16.192 2°54.465 24.3648 0.007472 0.039883 5.960631
2006-07-03 09:20:00 51°16.192 2°54.465 24.3686 0.007472 0.039883 5.926922
2006-07-03 09:20:05 51°16.192 2°54.465 24.3893 0.007472 0.039883 5.926922
2006-07-03 09:20:10 51°16.192 2°54.465 24.3964 0.007472 0.039882 5.926922
2006-07-03 09:20:14 51°16.192 2°54.465 24.4122 0.007472 0.039882 5.926922
2006-07-03 09:20:20 51°16.192 2°54.465 24.3991 0.007472 0.039882 5.960631
2006-07-03 09:20:25 51°16.192 2°54.465 24.3793 0.007472 0.039882 5.926922
2006-07-03 09:20:30 51°16.192 2°54.465 24.3833 0.007472 0.039881 5.960631
2006-07-03 09:20:35 51°16.192 2°54.465 24.3857 0.007472 0.039881 5.926922
2006-07-03 09:20:40 51°16.193 2°54.465 24.4062 0.007472 0.03988 5.960631
2006-07-03 09:20:45 51°16.193 2°54.465 24.4076 0.007472 0.03988 5.960631
2006-07-03 09:20:50 51°16.193 2°54.464 24.382 0.007472 0.039881 5.926922
2006-07-03 09:20:55 51°16.193 2°54.464 24.3926 0.007472 0.03988 5.926922
2006-07-03 09:21:00 51°16.193 2°54.464 24.4025 0.007472 0.03988 5.893212
2006-07-03 09:21:05 51°16.193 2°54.464 24.4214 0.007472 0.03988 5.926922
2006-07-03 09:21:10 51°16.192 2°54.463 24.4062 0.007472 0.039879 5.960631
2006-07-03 09:21:15 51°16.192 2°54.463 24.3856 0.007472 0.039879 5.960631
2006-07-03 09:21:20 51°16.192 2°54.463 24.3972 0.007472 0.039879 5.926922
2006-07-03 09:21:24 51°16.192 2°54.462 24.4118 0.007472 0.039879 5.960631
2006-07-03 09:21:30 51°16.192 2°54.462 24.4049 0.007472 0.039878 5.960631
2006-07-03 09:21:34 51°16.192 2°54.462 24.4174 0.007472 0.039878 5.926922
2006-07-03 09:21:40 51°16.192 2°54.461 24.4155 0.007472 0.039878 5.960631
2006-07-03 09:21:45 51°16.192 2°54.461 24.4178 0.007472 0.039878 5.960631
2006-07-03 09:21:50 51°16.192 2°54.46 24.4265 0.007472 0.039877 5.926922
2006-07-03 09:21:55 51°16.192 2°54.46 24.4221 0.007472 0.039877 5.926922
2006-07-03 09:22:00 51°16.191 2°54.46 24.4395 0.007472 0.039876 5.926922
2006-07-03 09:22:05 51°16.191 2°54.46 24.4148 0.007472 0.039876 5.926922
2006-07-03 09:22:10 51°16.191 2°54.46 24.4276 0.007472 0.039875 5.926922
2006-07-03 09:22:15 51°16.191 2°54.461 24.4268 0.007472 0.039875 5.926922
2006-07-03 09:22:20 51°16.191 2°54.462 24.4279 0.007472 0.039875 5.960631
2006-07-03 09:22:25 51°16.192 2°54.463 24.4265 0.007472 0.039875 5.960631
2006-07-03 09:22:30 51°16.192 2°54.465 24.4443 0.007472 0.039874 5.926922
2006-07-03 09:22:34 51°16.192 2°54.466 24.4548 0.007472 0.039874 5.960631
2006-07-03 09:22:41 51°16.193 2°54.469 24.4379 0.007472 0.039873 5.926922
2006-07-03 09:22:45 51°16.194 2°54.471 24.4335 0.007472 0.039873 5.926922
2006-07-03 09:22:50 51°16.195 2°54.473 24.4398 0.007472 0.039872 5.960631
2006-07-03 09:22:54 51°16.196 2°54.474 24.4671 0.007472 0.039872 5.960631
2006-07-03 09:23:00 51°16.198 2°54.477 24.4578 0.007472 0.039872 5.960631
2006-07-03 09:23:05 51°16.2 2°54.479 24.4493 0.007472 0.03987 5.960631
2006-07-03 09:23:10 51°16.202 2°54.481 24.4251 0.007472 0.03987 5.926922
2006-07-03 09:23:15 51°16.204 2°54.483 24.4488 0.007472 0.03987 5.926922
2006-07-03 09:23:20 51°16.207 2°54.485 24.4318 0.007472 0.03987 5.960631
2006-07-03 09:23:25 51°16.209 2°54.486 24.4469 0.007472 0.039875 5.960631
2006-07-03 09:23:30 51°16.212 2°54.486 24.4631 0.007472 0.039874 5.926922
2006-07-03 09:23:35 51°16.216 2°54.487 24.4562 0.007472 0.039873 5.960631
2006-07-03 09:23:40 51°16.219 2°54.487 24.4264 0.007472 0.039872 5.926922
2006-07-03 09:23:45 51°16.223 2°54.486 24.4437 0.007472 0.039872 5.926922
2006-07-03 09:23:50 51°16.226 2°54.485 24.4405 0.007472 0.039871 5.960631
2006-07-03 09:23:55 51°16.23 2°54.484 24.4362 0.007472 0.03987 5.926922
2006-07-03 09:24:00 51°16.234 2°54.482 24.4393 0.007472 0.03987 5.926922
2006-07-03 09:24:05 51°16.238 2°54.479 24.4156 0.007472 0.039869 5.893212
2006-07-03 09:24:10 51°16.241 2°54.476 24.4387 0.007472 0.039868 5.926922
2006-07-03 09:24:15 51°16.245 2°54.472 24.4342 0.007472 0.039868 5.926922
2006-07-03 09:24:20 51°16.249 2°54.468 24.4123 0.007472 0.039868 5.960631
2006-07-03 09:24:25 51°16.253 2°54.464 24.3917 0.007472 0.039868 5.926922
2006-07-03 09:24:30 51°16.257 2°54.459 24.4065 0.007472 0.039867 5.926922
2006-07-03 09:24:34 51°16.26 2°54.455 24.3857 0.007472 0.039867 5.960631
2006-07-03 09:24:40 51°16.265 2°54.449 24.4046 0.007472 0.039866 5.926922
2006-07-03 09:24:45 51°16.269 2°54.443 24.4171 0.007472 0.039866 5.926922
2006-07-03 09:24:50 51°16.273 2°54.438 24.4225 0.007472 0.039866 5.960631
2006-07-03 09:24:55 51°16.278 2°54.432 24.4192 0.007472 0.039866 5.960631
2006-07-03 09:25:00 51°16.282 2°54.426 24.4149 0.007472 0.039865 5.960631
2006-07-03 09:25:05 51°16.287 2°54.42 24.4379 0.007472 0.039865 5.926922
2006-07-03 09:25:10 51°16.291 2°54.414 24.4355 0.007472 0.039864 5.960631
2006-07-03 09:25:15 51°16.296 2°54.408 24.434 0.007472 0.039864 5.960631
2006-07-03 09:25:20 51°16.301 2°54.402 24.4242 0.007472 0.039864 5.926922
2006-07-03 09:25:25 51°16.306 2°54.396 24.4457 0.007472 0.039864 5.926922
2006-07-03 09:25:30 51°16.31 2°54.39 24.4367 0.007472 0.039863 5.960631
2006-07-03 09:25:34 51°16.314 2°54.384 24.4476 0.007472 0.039863 5.926922
2006-07-03 09:25:40 51°16.32 2°54.376 24.4551 0.007472 0.039863 5.960631
2006-07-03 09:25:44 51°16.324 2°54.371 24.4558 0.007472 0.039863 5.960631
2006-07-03 09:25:50 51°16.33 2°54.362 24.4509 0.007472 0.039863 5.926922
2006-07-03 09:25:55 51°16.334 2°54.355 24.4464 0.007472 0.039863 5.926922
2006-07-03 09:26:00 51°16.339 2°54.347 24.4577 0.007472 0.039862 5.893212
2006-07-03 09:26:05 51°16.344 2°54.34 24.4463 0.007472 0.039862 5.926922
2006-07-03 09:26:10 51°16.349 2°54.332 24.4541 0.007472 0.039862 5.960631
2006-07-03 09:26:15 51°16.353 2°54.324 24.4706 0.007472 0.039862 5.960631
2006-07-03 09:26:20 51°16.358 2°54.316 24.4508 0.007472 0.039862 5.926922
2006-07-03 09:26:25 51°16.362 2°54.307 24.4376 0.007472 0.039861 5.960631
2006-07-03 09:26:30 51°16.367 2°54.298 24.4593 0.007472 0.039861 5.960631
2006-07-03 09:26:35 51°16.371 2°54.29 24.4681 0.007472 0.039861 5.960631
2006-07-03 09:26:40 51°16.376 2°54.281 24.4825 0.007472 0.039861 5.960631
2006-07-03 09:26:45 51°16.38 2°54.272 24.4551 0.007472 0.039861 5.960631
2006-07-03 09:26:50 51°16.384 2°54.262 24.4426 0.007472 0.039861 5.960631
2006-07-03 09:26:54 51°16.387 2°54.255 24.4584 0.007472 0.039861 5.960631
2006-07-03 09:27:00 51°16.392 2°54.243 24.4505 0.007472 0.03986 5.926922
2006-07-03 09:27:04 51°16.396 2°54.234 24.4634 0.007472 0.03986 5.926922
2006-07-03 09:27:10 51°16.401 2°54.221 24.4634 0.007472 0.03986 5.960631
2006-07-03 09:27:15 51°16.405 2°54.21 24.4441 0.007472 0.03986 5.960631
2006-07-03 09:27:20 51°16.409 2°54.198 24.4485 0.007472 0.03986 5.994341
2006-07-03 09:27:24 51°16.412 2°54.189 24.4669 0.007472 0.03986 5.926922
2006-07-03 09:27:30 51°16.417 2°54.174 24.4569 0.007472 0.039859 5.926922
2006-07-03 09:27:35 51°16.421 2°54.161 24.4515 0.007472 0.039859 5.994341
2006-07-03 09:27:40 51°16.425 2°54.148 24.4623 0.007472 0.039859 5.960631
2006-07-03 09:27:45 51°16.428 2°54.135 24.4582 0.007472 0.039859 5.960631
2006-07-03 09:27:50 51°16.432 2°54.121 24.4413 0.007472 0.039859 5.994341
2006-07-03 09:27:55 51°16.435 2°54.108 24.426 0.007472 0.039859 5.994341
2006-07-03 09:28:00 51°16.439 2°54.094 24.409 0.007472 0.039859 5.960631
2006-07-03 09:28:05 51°16.443 2°54.08 24.4036 0.007472 0.039859 5.960631
2006-07-03 09:28:10 51°16.446 2°54.067 24.4461 0.007472 0.039859 5.960631
2006-07-03 09:28:14 51°16.449 2°54.057 24.4534 0.007472 0.039859 5.960631
2006-07-03 09:28:20 51°16.453 2°54.042 24.4146 0.007472 0.039859 5.960631
2006-07-03 09:28:25 51°16.457 2°54.029 24.4721 0.007472 0.039859 5.960631
2006-07-03 09:28:30 51°16.46 2°54.017 24.4478 0.007472 0.039859 5.926922
2006-07-03 09:28:35 51°16.463 2°54.004 24.459 0.007472 0.039859 5.960631
2006-07-03 09:28:40 51°16.467 2°53.992 24.4293 0.007472 0.039859 5.926922
2006-07-03 09:28:45 51°16.469 2°53.981 24.4424 0.007472 0.039859 5.926922
2006-07-03 09:28:50 51°16.472 2°53.97 24.4456 0.007472 0.039859 5.960631
2006-07-03 09:28:54 51°16.474 2°53.961 24.4931 0.007472 0.039858 5.960631
2006-07-03 09:29:00 51°16.476 2°53.949 24.4871 0.007472 0.039859 5.960631
2006-07-03 09:29:05 51°16.479 2°53.939 24.4837 0.007472 0.039859 5.926922
2006-07-03 09:29:10 51°16.48 2°53.929 24.4365 0.007472 0.039859 5.926922
2006-07-03 09:29:15 51°16.482 2°53.921 24.4686 0.007472 0.039859 5.926922
2006-07-03 09:29:20 51°16.483 2°53.913 24.4926 0.007472 0.039859 5.960631
2006-07-03 09:29:25 51°16.484 2°53.907 24.4804 0.007472 0.039859 5.960631
2006-07-03 09:29:30 51°16.484 2°53.903 24.4904 0.007472 0.039859 5.960631
2006-07-03 09:29:35 51°16.484 2°53.899 24.4449 0.007472 0.039859 5.926922
2006-07-03 09:29:40 51°16.484 2°53.897 24.4822 0.007472 0.039859 5.960631
2006-07-03 09:29:45 51°16.483 2°53.896 24.4482 0.007472 0.039859 5.960631
2006-07-03 09:29:50 51°16.483 2°53.895 24.4994 0.007472 0.039859 5.893212
2006-07-03 09:29:55 51°16.483 2°53.893 24.5118 0.007472 0.039859 5.994341
2006-07-03 09:30:00 51°16.482 2°53.892 24.4962 0.007472 0.039859 5.960631
2006-07-03 09:30:05 51°16.482 2°53.89 24.4932 0.007472 0.039859 5.926922
2006-07-03 09:30:10 51°16.482 2°53.889 24.4937 0.007472 0.039859 5.960631
2006-07-03 09:30:14 51°16.481 2°53.887 24.4976 0.007472 0.039859 5.960631
2006-07-03 09:30:21 51°16.481 2°53.885 24.4878 0.007472 0.039859 5.960631
2006-07-03 09:30:24 51°16.481 2°53.884 24.5013 0.007472 0.039859 5.960631
2006-07-03 09:30:30 51°16.48 2°53.882 24.4908 0.007472 0.039859 5.926922
2006-07-03 09:30:35 51°16.48 2°53.88 24.4963 0.007472 0.039859 5.994341
2006-07-03 09:30:40 51°16.479 2°53.879 24.4972 0.007472 0.039859 5.926922
2006-07-03 09:30:45 51°16.479 2°53.877 24.4934 0.007472 0.039859 5.926922
2006-07-03 09:30:50 51°16.478 2°53.876 24.4917 0.007472 0.039859 5.994341
2006-07-03 09:30:55 51°16.478 2°53.874 24.4989 0.007472 0.039859 5.926922
2006-07-03 09:31:00 51°16.477 2°53.872 24.5047 0.007472 0.039859 5.926922
2006-07-03 09:31:05 51°16.477 2°53.871 24.5129 0.007472 0.039859 5.960631
2006-07-03 09:31:10 51°16.476 2°53.869 24.5126 0.007472 0.039859 5.926922
2006-07-03 09:31:15 51°16.476 2°53.867 24.5031 0.007472 0.039859 5.926922
2006-07-03 09:31:20 51°16.475 2°53.865 24.5026 0.007472 0.039859 5.960631
2006-07-03 09:31:25 51°16.475 2°53.864 24.5143 0.007472 0.039859 5.960631
2006-07-03 09:31:30 51°16.474 2°53.862 24.5189 0.007472 0.039859 5.960631
2006-07-03 09:31:35 51°16.474 2°53.86 24.4809 0.007472 0.039859 5.926922
2006-07-03 09:31:40 51°16.474 2°53.858 24.4918 0.007472 0.039859 5.960631
2006-07-03 09:31:45 51°16.473 2°53.856 24.5027 0.007472 0.039859 5.960631
2006-07-03 09:31:50 51°16.473 2°53.855 24.507 0.007472 0.039859 5.960631
2006-07-03 09:31:54 51°16.472 2°53.853 24.5073 0.007472 0.039859 5.960631
2006-07-03 09:32:00 51°16.472 2°53.851 24.5138 0.007472 0.039859 5.926922
2006-07-03 09:32:05 51°16.471 2°53.849 24.5131 0.007472 0.039859 5.926922
2006-07-03 09:32:10 51°16.471 2°53.847 24.5142 0.007472 0.039859 5.926922
2006-07-03 09:32:15 51°16.47 2°53.845 24.5373 0.007472 0.039859 5.926922
2006-07-03 09:32:20 51°16.47 2°53.844 24.5231 0.007472 0.039859 5.960631
2006-07-03 09:32:25 51°16.469 2°53.841 24.5074 0.007472 0.039859 5.960631
2006-07-03 09:32:30 51°16.468 2°53.84 24.5204 0.007472 0.039859 5.960631
2006-07-03 09:32:35 51°16.468 2°53.838 24.5065 0.007472 0.039859 5.926922
2006-07-03 09:32:40 51°16.467 2°53.836 24.4994 0.007472 0.039859 5.960631
2006-07-03 09:32:45 51°16.467 2°53.834 24.5197 0.007472 0.039859 5.960631
2006-07-03 09:32:50 51°16.466 2°53.832 24.5186 0.007472 0.039859 5.926922
2006-07-03 09:32:54 51°16.466 2°53.831 24.528 0.007472 0.039859 5.926922
2006-07-03 09:33:00 51°16.465 2°53.828 24.5379 0.007472 0.039859 5.960631
2006-07-03 09:33:05 51°16.464 2°53.826 24.5256 0.007472 0.039859 5.926922
2006-07-03 09:33:10 51°16.464 2°53.824 24.5179 0.007472 0.039859 5.960631
2006-07-03 09:33:15 51°16.463 2°53.822 24.5243 0.007472 0.039859 5.960631
2006-07-03 09:33:20 51°16.463 2°53.82 24.5198 0.007472 0.039859 5.960631
2006-07-03 09:33:26 51°16.462 2°53.818 24.5227 0.007472 0.039859 5.960631
2006-07-03 09:33:30 51°16.461 2°53.816 24.5337 0.007472 0.039859 5.960631
2006-07-03 09:33:35 51°16.461 2°53.814 24.5287 0.007472 0.039859 5.960631
2006-07-03 09:33:40 51°16.46 2°53.812 24.5019 0.007472 0.039859 5.926922
2006-07-03 09:33:44 51°16.46 2°53.811 24.5386 0.007472 0.039859 5.926922
2006-07-03 09:33:50 51°16.459 2°53.808 24.5385 0.007472 0.039859 5.926922
2006-07-03 09:33:55 51°16.458 2°53.806 24.5197 0.007472 0.039859 5.926922
2006-07-03 09:34:00 51°16.458 2°53.804 24.5333 0.007472 0.039859 5.960631
2006-07-03 09:34:05 51°16.457 2°53.802 24.5356 0.007472 0.039859 5.960631
2006-07-03 09:34:10 51°16.457 2°53.8 24.5253 0.007472 0.039859 5.960631
2006-07-03 09:34:15 51°16.456 2°53.798 24.5402 0.007472 0.039859 5.960631
2006-07-03 09:34:20 51°16.455 2°53.796 24.5486 0.007472 0.039859 5.926922
2006-07-03 09:34:25 51°16.455 2°53.794 24.5366 0.007472 0.039859 5.960631
2006-07-03 09:34:30 51°16.454 2°53.792 24.5556 0.007472 0.039859 5.960631
2006-07-03 09:34:35 51°16.454 2°53.79 24.5457 0.007472 0.039859 5.960631
2006-07-03 09:34:40 51°16.453 2°53.787 24.5197 0.007472 0.039859 5.926922
2006-07-03 09:34:45 51°16.452 2°53.785 24.5409 0.007472 0.039859 5.926922
2006-07-03 09:34:50 51°16.452 2°53.783 24.5576 0.007472 0.039859 5.960631
2006-07-03 09:34:55 51°16.451 2°53.781 24.5371 0.007472 0.039859 5.926922
2006-07-03 09:35:00 51°16.451 2°53.779 24.5546 0.007472 0.039859 5.960631
2006-07-03 09:35:05 51°16.45 2°53.777 24.5654 0.007472 0.039859 5.960631
2006-07-03 09:35:10 51°16.45 2°53.774 24.5338 0.007472 0.039859 5.960631
2006-07-03 09:35:14 51°16.449 2°53.773 24.5286 0.007472 0.039859 5.960631
2006-07-03 09:35:20 51°16.448 2°53.77 24.5652 0.007472 0.039859 5.960631
2006-07-03 09:35:25 51°16.448 2°53.768 24.5455 0.007472 0.039859 5.960631
2006-07-03 09:35:30 51°16.447 2°53.765 24.5478 0.007472 0.039859 5.926922
2006-07-03 09:35:35 51°16.447 2°53.763 24.5623 0.007472 0.039859 5.960631
2006-07-03 09:35:40 51°16.446 2°53.761 24.5346 0.007472 0.039859 5.960631
2006-07-03 09:35:45 51°16.445 2°53.759 24.5437 0.007472 0.039859 5.960631
2006-07-03 09:35:50 51°16.445 2°53.757 24.5703 0.007472 0.03986 5.960631
2006-07-03 09:35:55 51°16.444 2°53.754 24.573 0.007472 0.039859 5.960631
2006-07-03 09:36:00 51°16.444 2°53.752 24.5593 0.007472 0.03986 5.960631
2006-07-03 09:36:05 51°16.443 2°53.75 24.5598 0.007472 0.03986 5.960631
2006-07-03 09:36:10 51°16.443 2°53.748 24.5683 0.007472 0.03986 5.960631
2006-07-03 09:36:15 51°16.442 2°53.745 24.5718 0.007472 0.03986 5.960631
2006-07-03 09:36:20 51°16.441 2°53.743 24.5513 0.007472 0.03986 5.994341
2006-07-03 09:36:25 51°16.441 2°53.741 24.5517 0.007472 0.03986 5.960631
2006-07-03 09:36:30 51°16.44 2°53.739 24.564 0.007472 0.03986 5.960631
2006-07-03 09:36:34 51°16.44 2°53.737 24.5638 0.007472 0.03986 5.960631
2006-07-03 09:36:39 51°16.439 2°53.735 24.5735 0.007472 0.03986 5.960631
2006-07-03 09:36:44 51°16.439 2°53.732 24.5607 0.007472 0.03986 5.960631
2006-07-03 09:36:49 51°16.438 2°53.73 24.5787 0.007472 0.039861 5.994341
2006-07-03 09:36:55 51°16.437 2°53.727 24.554 0.007472 0.03986 5.960631
2006-07-03 09:37:00 51°16.437 2°53.725 24.5881 0.007472 0.039861 5.926922
2006-07-03 09:37:05 51°16.436 2°53.723 24.5573 0.007472 0.039861 5.960631
2006-07-03 09:37:10 51°16.435 2°53.721 24.5807 0.007472 0.039861 5.960631
2006-07-03 09:37:15 51°16.435 2°53.718 24.5758 0.007472 0.039861 5.960631
2006-07-03 09:37:20 51°16.434 2°53.716 24.5751 0.007472 0.03986 5.960631
2006-07-03 09:37:25 51°16.434 2°53.714 24.5782 0.007472 0.039861 5.926922
2006-07-03 09:37:30 51°16.433 2°53.712 24.5747 0.007472 0.039861 5.926922
2006-07-03 09:37:34 51°16.433 2°53.71 24.566 0.007472 0.039861 5.926922
2006-07-03 09:37:40 51°16.432 2°53.707 24.5777 0.007472 0.039861 5.960631
2006-07-03 09:37:45 51°16.432 2°53.705 24.5922 0.007472 0.039861 5.960631
2006-07-03 09:37:50 51°16.431 2°53.703 24.5753 0.007472 0.039861 5.960631
2006-07-03 09:37:55 51°16.431 2°53.7 24.6013 0.007472 0.039861 5.926922
2006-07-03 09:38:00 51°16.43 2°53.698 24.5844 0.007472 0.039861 5.994341
2006-07-03 09:38:05 51°16.43 2°53.696 24.5805 0.007472 0.039861 5.994341
2006-07-03 09:38:10 51°16.429 2°53.694 24.5895 0.007472 0.039861 5.960631
2006-07-03 09:38:15 51°16.428 2°53.691 24.5815 0.007472 0.039861 5.960631
2006-07-03 09:38:20 51°16.428 2°53.689 24.5912 0.007472 0.039861 5.960631
2006-07-03 09:38:25 51°16.427 2°53.687 24.6022 0.007472 0.039861 5.960631
2006-07-03 09:38:30 51°16.427 2°53.685 24.596 0.007472 0.039861 5.960631
2006-07-03 09:38:35 51°16.426 2°53.682 24.5859 0.007472 0.039861 5.960631
2006-07-03 09:38:41 51°16.426 2°53.68 24.58 0.007472 0.039862 5.960631
2006-07-03 09:38:45 51°16.425 2°53.678 24.5967 0.007472 0.039862 5.960631
2006-07-03 09:38:50 51°16.425 2°53.676 24.5922 0.007472 0.039861 5.960631
2006-07-03 09:38:55 51°16.425 2°53.673 24.6017 0.007472 0.039861 5.960631
2006-07-03 09:39:00 51°16.424 2°53.671 24.6044 0.007472 0.039862 5.960631
2006-07-03 09:39:05 51°16.423 2°53.669 24.6075 0.007472 0.039862 5.960631
2006-07-03 09:39:10 51°16.423 2°53.667 24.6014 0.007472 0.039862 5.994341
2006-07-03 09:39:15 51°16.422 2°53.665 24.6144 0.007472 0.039862 5.994341
2006-07-03 09:39:20 51°16.422 2°53.663 24.6055 0.007472 0.039862 5.960631
2006-07-03 09:39:25 51°16.421 2°53.661 24.6168 0.007472 0.039862 5.926922
2006-07-03 09:39:30 51°16.421 2°53.658 24.6069 0.007472 0.039862 5.960631
2006-07-03 09:39:35 51°16.42 2°53.656 24.619 0.007472 0.039862 5.960631
2006-07-03 09:39:40 51°16.42 2°53.654 24.6061 0.007472 0.039862 5.926922
2006-07-03 09:39:45 51°16.419 2°53.652 24.6034 0.007472 0.039862 5.926922
2006-07-03 09:39:50 51°16.419 2°53.65 24.6066 0.007472 0.039862 5.960631
2006-07-03 09:39:55 51°16.418 2°53.648 24.6031 0.007472 0.039862 5.960631
2006-07-03 09:40:00 51°16.418 2°53.645 24.6165 0.007472 0.039862 5.960631
2006-07-03 09:40:05 51°16.417 2°53.643 24.624 0.007472 0.039862 5.926922
2006-07-03 09:40:10 51°16.417 2°53.641 24.6224 0.007472 0.039863 5.926922
2006-07-03 09:40:14 51°16.416 2°53.639 24.6068 0.007472 0.039863 5.926922
2006-07-03 09:40:20 51°16.416 2°53.637 24.5916 0.007472 0.039863 5.994341
2006-07-03 09:40:25 51°16.416 2°53.634 24.6024 0.007472 0.039863 5.960631
2006-07-03 09:40:30 51°16.415 2°53.632 24.6212 0.007472 0.039863 5.926922
2006-07-03 09:40:34 51°16.415 2°53.631 24.6044 0.007472 0.039863 5.960631
2006-07-03 09:40:40 51°16.414 2°53.628 24.6176 0.007472 0.039863 5.960631
2006-07-03 09:40:45 51°16.414 2°53.626 24.6165 0.007472 0.039863 5.960631
2006-07-03 09:40:50 51°16.413 2°53.624 24.6195 0.007472 0.039864 5.960631
2006-07-03 09:40:54 51°16.413 2°53.622 24.6194 0.007472 0.039864 5.960631
2006-07-03 09:41:00 51°16.412 2°53.619 24.623 0.007472 0.039864 5.960631
2006-07-03 09:41:05 51°16.412 2°53.617 24.6416 0.007472 0.039864 5.960631
2006-07-03 09:41:10 51°16.411 2°53.615 24.6158 0.007472 0.039864 5.960631
2006-07-03 09:41:15 51°16.41 2°53.613 24.635 0.007472 0.039864 5.960631
2006-07-03 09:41:20 51°16.41 2°53.611 24.6372 0.007472 0.039864 5.960631
2006-07-03 09:41:24 51°16.41 2°53.609 24.6349 0.007472 0.039864 5.994341
2006-07-03 09:41:30 51°16.409 2°53.606 24.6335 0.007472 0.039865 5.994341
2006-07-03 09:41:35 51°16.408 2°53.604 24.6342 0.007472 0.039864 5.960631
2006-07-03 09:41:40 51°16.408 2°53.602 24.6092 0.007472 0.039865 5.994341
2006-07-03 09:41:45 51°16.407 2°53.6 24.6274 0.007472 0.039865 5.994341
2006-07-03 09:41:50 51°16.407 2°53.598 24.6272 0.007472 0.039865 5.994341
2006-07-03 09:41:55 51°16.406 2°53.595 24.6225 0.007472 0.039865 5.960631
2006-07-03 09:42:00 51°16.406 2°53.593 24.6402 0.007472 0.039866 5.960631
2006-07-03 09:42:05 51°16.405 2°53.591 24.6356 0.007472 0.039866 5.994341
2006-07-03 09:42:10 51°16.405 2°53.589 24.6408 0.007472 0.039866 5.994341
2006-07-03 09:42:14 51°16.404 2°53.587 24.6481 0.007472 0.039866 5.994341
2006-07-03 09:42:20 51°16.404 2°53.585 24.6226 0.007472 0.039866 5.994341
2006-07-03 09:42:25 51°16.403 2°53.583 24.6489 0.007472 0.039867 5.994341
2006-07-03 09:42:30 51°16.403 2°53.581 24.637 0.007472 0.039866 5.960631
2006-07-03 09:42:35 51°16.403 2°53.579 24.6406 0.007472 0.039867 5.960631
2006-07-03 09:42:40 51°16.402 2°53.577 24.6476 0.007472 0.039867 5.960631
2006-07-03 09:42:44 51°16.402 2°53.575 24.6436 0.007472 0.039867 5.960631
2006-07-03 09:42:50 51°16.401 2°53.573 24.6231 0.007472 0.039867 5.994341
2006-07-03 09:42:54 51°16.401 2°53.571 24.6415 0.007472 0.039867 5.994341
2006-07-03 09:42:59 51°16.401 2°53.569 24.6505 0.007472 0.039867 5.960631
2006-07-03 09:43:05 51°16.4 2°53.566 24.6551 0.007472 0.039868 5.994341
2006-07-03 09:43:10 51°16.399 2°53.564 24.6311 0.007472 0.039868 5.960631
2006-07-03 09:43:14 51°16.399 2°53.562 24.6462 0.007472 0.039868 5.960631
2006-07-03 09:43:20 51°16.398 2°53.559 24.6188 0.007472 0.039868 5.960631
2006-07-03 09:43:25 51°16.398 2°53.557 24.6596 0.007472 0.039868 5.960631
2006-07-03 09:43:30 51°16.397 2°53.555 24.6634 0.007472 0.039869 5.926922
2006-07-03 09:43:35 51°16.397 2°53.553 24.6528 0.007472 0.039869 5.960631
2006-07-03 09:43:40 51°16.396 2°53.55 24.6677 0.007472 0.039869 5.960631
2006-07-03 09:43:45 51°16.396 2°53.549 24.6624 0.007472 0.039869 5.960631
2006-07-03 09:43:50 51°16.395 2°53.547 24.6639 0.007472 0.039869 5.994341
2006-07-03 09:43:55 51°16.395 2°53.544 24.6423 0.007472 0.03987 5.960631
2006-07-03 09:44:00 51°16.394 2°53.542 24.6393 0.007472 0.03987 5.960631
2006-07-03 09:44:05 51°16.394 2°53.54 24.6334 0.007472 0.03987 5.960631
2006-07-03 09:44:10 51°16.393 2°53.538 24.6484 0.007472 0.03987 5.994341
2006-07-03 09:44:14 51°16.393 2°53.537 24.6466 0.007472 0.03987 5.994341
2006-07-03 09:44:20 51°16.393 2°53.534 24.6622 0.007472 0.03987 5.994341
2006-07-03 09:44:24 51°16.392 2°53.532 24.6513 0.007472 0.039871 5.960631
2006-07-03 09:44:30 51°16.392 2°53.529 24.6543 0.007472 0.039871 5.960631
2006-07-03 09:44:35 51°16.391 2°53.527 24.6386 0.007472 0.039871 5.994341
2006-07-03 09:44:40 51°16.391 2°53.525 24.6615 0.007472 0.039872 5.994341
2006-07-03 09:44:45 51°16.39 2°53.523 24.6508 0.007472 0.039872 5.994341
2006-07-03 09:44:50 51°16.389 2°53.52 24.6562 0.007472 0.039872 5.960631
2006-07-03 09:44:55 51°16.389 2°53.518 24.6593 0.007472 0.039872 5.994341
2006-07-03 09:45:00 51°16.388 2°53.516 24.6491 0.007472 0.039872 5.994341
2006-07-03 09:45:05 51°16.388 2°53.514 24.6622 0.007472 0.039873 5.960631
2006-07-03 09:45:10 51°16.387 2°53.511 24.6736 0.007472 0.039873 5.994341
2006-07-03 09:45:15 51°16.387 2°53.509 24.6551 0.007472 0.039873 5.994341
2006-07-03 09:45:20 51°16.386 2°53.507 24.6684 0.007472 0.039874 5.994341
2006-07-03 09:45:25 51°16.386 2°53.505 24.6625 0.007472 0.039874 5.994341
2006-07-03 09:45:30 51°16.385 2°53.502 24.6735 0.007472 0.039874 5.994341
2006-07-03 09:45:36 51°16.384 2°53.499 24.6775 0.007472 0.039874 5.994341
2006-07-03 09:45:40 51°16.384 2°53.498 24.6759 0.007472 0.039874 5.960631
2006-07-03 09:45:45 51°16.384 2°53.495 24.6729 0.007472 0.039874 5.960631
2006-07-03 09:45:50 51°16.383 2°53.493 24.6714 0.007472 0.039874 5.960631
2006-07-03 09:45:54 51°16.383 2°53.491 24.6716 0.007472 0.039875 5.994341
2006-07-03 09:46:00 51°16.382 2°53.488 24.6674 0.007472 0.039875 5.994341
2006-07-03 09:46:05 51°16.382 2°53.486 24.6719 0.007472 0.039876 5.994341
2006-07-03 09:46:10 51°16.381 2°53.484 24.6821 0.007472 0.039876 5.960631
2006-07-03 09:46:15 51°16.381 2°53.482 24.6902 0.007472 0.039876 5.960631
2006-07-03 09:46:20 51°16.38 2°53.48 24.6665 0.007472 0.039876 5.994341
2006-07-03 09:46:23 51°16.38 2°53.479 24.6703 0.007472 0.039877 5.994341
2006-07-03 09:46:30 51°16.379 2°53.476 24.673 0.007472 0.039877 5.994341
2006-07-03 09:46:35 51°16.378 2°53.474 24.668 0.007472 0.039877 5.994341
2006-07-03 09:46:40 51°16.378 2°53.472 24.6739 0.007472 0.039877 5.994341
2006-07-03 09:46:45 51°16.377 2°53.47 24.6999 0.007472 0.039877 5.994341
2006-07-03 09:46:50 51°16.376 2°53.467 24.6773 0.007472 0.039878 5.960631
2006-07-03 09:46:54 51°16.376 2°53.466 24.6851 0.007472 0.039878 5.960631
2006-07-03 09:46:59 51°16.375 2°53.463 24.696 0.007472 0.039878 5.960631
2006-07-03 09:47:04 51°16.375 2°53.461 24.6729 0.007472 0.039879 5.960631
2006-07-03 09:47:10 51°16.374 2°53.458 24.6748 0.007472 0.039879 5.960631
2006-07-03 09:47:15 51°16.374 2°53.456 24.6623 0.007472 0.039879 5.960631
2006-07-03 09:47:20 51°16.373 2°53.454 24.6253 0.007472 0.039879 5.960631
2006-07-03 09:47:25 51°16.373 2°53.451 24.6882 0.007472 0.03988 5.994341
2006-07-03 09:47:30 51°16.372 2°53.449 24.6946 0.007472 0.03988 5.994341
2006-07-03 09:47:34 51°16.372 2°53.447 24.6949 0.007472 0.03988 5.960631
2006-07-03 09:47:40 51°16.371 2°53.445 24.6697 0.007472 0.03988 5.994341
2006-07-03 09:47:45 51°16.371 2°53.442 24.6232 0.007472 0.03988 5.994341
2006-07-03 09:47:50 51°16.37 2°53.44 24.652 0.007472 0.039881 5.960631
2006-07-03 09:47:54 51°16.37 2°53.438 24.6999 0.007472 0.039881 5.960631
2006-07-03 09:48:00 51°16.369 2°53.435 24.6973 0.007472 0.03988 5.994341
2006-07-03 09:48:05 51°16.369 2°53.433 24.6748 0.007472 0.039881 5.994341
2006-07-03 09:48:10 51°16.368 2°53.431 24.6008 0.007472 0.039881 5.960631
2006-07-03 09:48:15 51°16.368 2°53.428 24.6124 0.007472 0.039881 5.960631
2006-07-03 09:48:20 51°16.368 2°53.426 24.66 0.007472 0.039883 5.994341
2006-07-03 09:48:25 51°16.368 2°53.423 24.6595 0.007472 0.039883 5.994341
2006-07-03 09:48:30 51°16.367 2°53.42 24.6736 0.007472 0.039883 6.02805
2006-07-03 09:48:35 51°16.367 2°53.418 24.6689 0.007472 0.039883 5.994341
2006-07-03 09:48:40 51°16.366 2°53.416 24.5921 0.007472 0.039883 6.02805
2006-07-03 09:48:45 51°16.366 2°53.414 24.62 0.007472 0.039883 6.02805
2006-07-03 09:48:50 51°16.365 2°53.412 24.628 0.007472 0.039884 5.994341
2006-07-03 09:48:54 51°16.365 2°53.41 24.6439 0.007472 0.039885 5.994341
2006-07-03 09:49:00 51°16.364 2°53.408 24.6358 0.007472 0.039885 5.960631
2006-07-03 09:49:05 51°16.364 2°53.405 24.6167 0.007472 0.039885 5.994341
2006-07-03 09:49:10 51°16.363 2°53.403 24.6232 0.007472 0.039886 5.960631
2006-07-03 09:49:15 51°16.363 2°53.401 24.6365 0.007472 0.039886 5.960631
2006-07-03 09:49:20 51°16.362 2°53.399 24.6348 0.007472 0.039886 5.994341
2006-07-03 09:49:25 51°16.362 2°53.397 24.6471 0.007472 0.039886 5.960631
2006-07-03 09:49:30 51°16.361 2°53.395 24.6396 0.007472 0.039887 5.960631
2006-07-03 09:49:35 51°16.361 2°53.392 24.6491 0.007472 0.039887 5.960631
2006-07-03 09:49:40 51°16.36 2°53.391 24.6421 0.007472 0.039887 5.994341
2006-07-03 09:49:44 51°16.359 2°53.389 24.6588 0.007472 0.039887 5.994341
2006-07-03 09:49:50 51°16.358 2°53.386 24.6588 0.007472 0.039888 5.994341
2006-07-03 09:49:55 51°16.358 2°53.384 24.6573 0.007472 0.039888 5.994341
2006-07-03 09:50:00 51°16.357 2°53.382 24.6639 0.007472 0.039888 5.960631
2006-07-03 09:50:05 51°16.357 2°53.379 24.6329 0.007472 0.039889 5.960631
2006-07-03 09:50:10 51°16.356 2°53.377 24.6545 0.007472 0.039889 5.994341
2006-07-03 09:50:15 51°16.356 2°53.375 24.6537 0.007472 0.039889 5.994341
2006-07-03 09:50:20 51°16.355 2°53.372 24.6557 0.007472 0.039889 5.960631
2006-07-03 09:50:25 51°16.355 2°53.37 24.6562 0.007472 0.039889 5.994341
2006-07-03 09:50:30 51°16.355 2°53.367 24.6475 0.007472 0.03989 6.02805
2006-07-03 09:50:34 51°16.354 2°53.365 24.6517 0.007472 0.03989 5.960631
2006-07-03 09:50:41 51°16.353 2°53.361 24.6642 0.007472 0.03989 6.02805
2006-07-03 09:50:45 51°16.353 2°53.36 24.6639 0.007472 0.03989 6.02805
2006-07-03 09:50:50 51°16.353 2°53.357 24.6749 0.007472 0.03989 5.994341
2006-07-03 09:50:54 51°16.352 2°53.355 24.6606 0.007472 0.039891 5.994341
2006-07-03 09:51:00 51°16.351 2°53.352 24.6744 0.007472 0.039891 6.02805
2006-07-03 09:51:05 51°16.351 2°53.35 24.6832 0.007472 0.039891 5.994341
2006-07-03 09:51:10 51°16.35 2°53.347 24.6809 0.007472 0.039891 5.960631
2006-07-03 09:51:15 51°16.35 2°53.345 24.6627 0.007472 0.039891 5.960631
2006-07-03 09:51:20 51°16.35 2°53.343 24.6624 0.007472 0.039891 5.994341
2006-07-03 09:51:24 51°16.349 2°53.341 24.6714 0.007472 0.039892 5.994341
2006-07-03 09:51:29 51°16.349 2°53.338 24.6769 0.007472 0.039892 5.994341
2006-07-03 09:51:35 51°16.348 2°53.335 24.6492 0.007472 0.039892 5.994341
2006-07-03 09:51:40 51°16.347 2°53.333 24.6782 0.007472 0.039893 6.02805
2006-07-03 09:51:45 51°16.347 2°53.331 24.6735 0.007472 0.039893 6.02805
2006-07-03 09:51:50 51°16.347 2°53.329 24.6853 0.007472 0.039893 5.960631
2006-07-03 09:51:55 51°16.346 2°53.327 24.6817 0.007472 0.039893 5.994341
2006-07-03 09:52:00 51°16.346 2°53.324 24.6917 0.007472 0.039893 5.994341
2006-07-03 09:52:05 51°16.345 2°53.322 24.6908 0.007472 0.039894 5.960631
2006-07-03 09:52:10 51°16.344 2°53.319 24.6901 0.007472 0.039894 5.960631
2006-07-03 09:52:14 51°16.344 2°53.318 24.6783 0.007472 0.039894 5.960631
2006-07-03 09:52:20 51°16.343 2°53.315 24.6874 0.007472 0.039894 5.994341
2006-07-03 09:52:25 51°16.343 2°53.312 24.6806 0.007472 0.039894 5.994341
2006-07-03 09:52:30 51°16.342 2°53.31 24.6959 0.007472 0.039895 5.994341
2006-07-03 09:52:35 51°16.341 2°53.307 24.6771 0.007472 0.039895 6.02805
2006-07-03 09:52:40 51°16.341 2°53.305 24.6831 0.007472 0.039895 5.994341
2006-07-03 09:52:45 51°16.34 2°53.302 24.6735 0.007472 0.039895 5.994341
2006-07-03 09:52:50 51°16.34 2°53.3 24.6841 0.007472 0.039895 5.994341
2006-07-03 09:52:55 51°16.339 2°53.297 24.6838 0.007472 0.039896 5.994341
2006-07-03 09:53:00 51°16.338 2°53.295 24.6847 0.007472 0.039896 5.994341
2006-07-03 09:53:05 51°16.338 2°53.292 24.6899 0.007472 0.039896 5.994341
2006-07-03 09:53:10 51°16.337 2°53.29 24.6901 0.007472 0.039896 5.994341
2006-07-03 09:53:14 51°16.337 2°53.288 24.6919 0.007472 0.039896 5.994341
2006-07-03 09:53:20 51°16.336 2°53.285 24.707 0.007472 0.039897 5.994341
2006-07-03 09:53:24 51°16.335 2°53.283 24.7058 0.007472 0.039897 5.994341
2006-07-03 09:53:30 51°16.335 2°53.28 24.6975 0.007472 0.039898 5.994341
2006-07-03 09:53:35 51°16.334 2°53.278 24.6928 0.007472 0.039898 5.994341
2006-07-03 09:53:40 51°16.334 2°53.275 24.7073 0.007472 0.039898 6.02805
2006-07-03 09:53:45 51°16.333 2°53.273 24.7046 0.007472 0.039898 6.02805
2006-07-03 09:53:50 51°16.332 2°53.271 24.6848 0.007472 0.039898 5.960631
2006-07-03 09:53:55 51°16.332 2°53.269 24.6905 0.007472 0.039899 5.960631
2006-07-03 09:54:00 51°16.331 2°53.267 24.6961 0.007472 0.039899 5.994341
2006-07-03 09:54:05 51°16.33 2°53.265 24.7054 0.007472 0.039899 5.994341
2006-07-03 09:54:10 51°16.329 2°53.263 24.7101 0.007472 0.0399 6.02805
2006-07-03 09:54:15 51°16.329 2°53.26 24.7059 0.007472 0.0399 6.02805
2006-07-03 09:54:20 51°16.328 2°53.257 24.7212 0.007472 0.0399 5.994341
2006-07-03 09:54:25 51°16.328 2°53.255 24.698 0.007472 0.0399 5.994341
2006-07-03 09:54:30 51°16.327 2°53.252 24.7052 0.007472 0.0399 6.02805
2006-07-03 09:54:35 51°16.327 2°53.25 24.7126 0.007472 0.039901 5.994341
2006-07-03 09:54:40 51°16.326 2°53.247 24.7085 0.007472 0.039901 5.994341
2006-07-03 09:54:45 51°16.326 2°53.244 24.7158 0.007472 0.039901 5.994341
2006-07-03 09:54:50 51°16.325 2°53.242 24.7176 0.007472 0.039901 5.994341
2006-07-03 09:54:55 51°16.325 2°53.239 24.7206 0.007472 0.039901 5.994341
2006-07-03 09:55:00 51°16.324 2°53.237 24.718 0.007472 0.039902 5.994341
2006-07-03 09:55:05 51°16.324 2°53.234 24.7092 0.007472 0.039902 5.994341
2006-07-03 09:55:10 51°16.323 2°53.232 24.724 0.007472 0.039903 5.994341
2006-07-03 09:55:14 51°16.323 2°53.23 24.7173 0.007472 0.039903 5.994341
2006-07-03 09:55:19 51°16.323 2°53.227 24.7234 0.007472 0.039903 5.960631
2006-07-03 09:55:25 51°16.322 2°53.224 24.7213 0.007472 0.039903 6.02805
2006-07-03 09:55:30 51°16.322 2°53.221 24.7298 0.007472 0.039903 5.960631
2006-07-03 09:55:34 51°16.321 2°53.219 24.7235 0.007472 0.039904 5.994341
2006-07-03 09:55:40 51°16.32 2°53.216 24.7156 0.007472 0.039904 5.994341
2006-07-03 09:55:45 51°16.32 2°53.214 24.7395 0.007472 0.039904 5.994341
2006-07-03 09:55:50 51°16.319 2°53.211 24.7405 0.007472 0.039904 6.02805
2006-07-03 09:55:55 51°16.319 2°53.209 24.7179 0.007472 0.039905 5.994341
2006-07-03 09:56:00 51°16.318 2°53.206 24.7359 0.007472 0.039905 6.02805
2006-07-03 09:56:05 51°16.318 2°53.204 24.7379 0.007472 0.039905 6.02805
2006-07-03 09:56:10 51°16.317 2°53.201 24.7449 0.007472 0.039905 5.994341
2006-07-03 09:56:15 51°16.317 2°53.198 24.7433 0.007472 0.039905 5.994341
2006-07-03 09:56:21 51°16.316 2°53.195 24.7359 0.007472 0.039906 5.994341
2006-07-03 09:56:25 51°16.316 2°53.193 24.7329 0.007472 0.039906 6.02805
2006-07-03 09:56:31 51°16.315 2°53.19 24.7255 0.007472 0.039906 5.994341
2006-07-03 09:56:34 51°16.315 2°53.189 24.7361 0.007472 0.039906 5.994341
2006-07-03 09:56:39 51°16.314 2°53.186 24.739 0.007472 0.039907 6.02805
2006-07-03 09:56:45 51°16.314 2°53.183 24.7516 0.007472 0.039907 6.02805
2006-07-03 09:56:50 51°16.313 2°53.181 24.7432 0.007472 0.039907 5.994341
2006-07-03 09:56:56 51°16.312 2°53.178 24.7571 0.007472 0.039907 5.994341
2006-07-03 09:57:00 51°16.312 2°53.175 24.7461 0.007472 0.039908 6.02805
2006-07-03 09:57:05 51°16.311 2°53.173 24.7397 0.007472 0.039908 6.02805
2006-07-03 09:57:10 51°16.311 2°53.17 24.7736 0.007472 0.039908 6.02805
2006-07-03 09:57:15 51°16.31 2°53.168 24.7562 0.007472 0.039908 6.02805
2006-07-03 09:57:20 51°16.31 2°53.165 24.7552 0.007472 0.039909 5.994341
2006-07-03 09:57:25 51°16.309 2°53.163 24.7516 0.007472 0.039909 5.994341
2006-07-03 09:57:30 51°16.308 2°53.16 24.755 0.007472 0.039909 5.960631
2006-07-03 09:57:35 51°16.308 2°53.158 24.7581 0.007472 0.039909 5.994341
2006-07-03 09:57:40 51°16.307 2°53.155 24.762 0.007472 0.039909 5.994341
2006-07-03 09:57:45 51°16.307 2°53.153 24.7684 0.007472 0.039909 5.994341
2006-07-03 09:57:50 51°16.306 2°53.15 24.7651 0.007472 0.03991 6.02805
2006-07-03 09:57:55 51°16.305 2°53.148 24.7423 0.007472 0.03991 5.994341
2006-07-03 09:58:00 51°16.305 2°53.145 24.7503 0.007472 0.03991 5.994341
2006-07-03 09:58:05 51°16.304 2°53.142 24.7606 0.007472 0.039911 5.994341
2006-07-03 09:58:10 51°16.304 2°53.14 24.7502 0.007472 0.039911 6.02805
2006-07-03 09:58:15 51°16.303 2°53.138 24.7746 0.007472 0.039911 6.02805
2006-07-03 09:58:20 51°16.303 2°53.135 24.7817 0.007472 0.039911 5.994341
2006-07-03 09:58:25 51°16.302 2°53.132 24.7527 0.007472 0.039911 6.02805
2006-07-03 09:58:30 51°16.301 2°53.13 24.7675 0.007472 0.039912 5.994341
2006-07-03 09:58:35 51°16.301 2°53.127 24.7628 0.007472 0.039912 5.994341
2006-07-03 09:58:40 51°16.3 2°53.125 24.7649 0.007472 0.039913 6.02805
2006-07-03 09:58:44 51°16.3 2°53.123 24.7657 0.007472 0.039913 6.02805
2006-07-03 09:58:50 51°16.299 2°53.12 24.7937 0.007472 0.039913 6.02805
2006-07-03 09:58:54 51°16.299 2°53.118 24.7964 0.007472 0.039913 5.960631
2006-07-03 09:59:00 51°16.298 2°53.115 24.7793 0.007472 0.039913 5.994341
2006-07-03 09:59:05 51°16.297 2°53.112 24.771 0.007472 0.039914 6.02805
2006-07-03 09:59:10 51°16.297 2°53.11 24.7751 0.007472 0.039914 5.994341
2006-07-03 09:59:14 51°16.296 2°53.108 24.7717 0.007472 0.039914 5.994341
2006-07-03 09:59:20 51°16.295 2°53.105 24.7752 0.007472 0.039914 6.02805
2006-07-03 09:59:25 51°16.295 2°53.102 24.7869 0.007472 0.039915 6.02805
2006-07-03 09:59:30 51°16.294 2°53.1 24.7858 0.007472 0.039915 6.02805
2006-07-03 09:59:34 51°16.294 2°53.098 24.7837 0.007472 0.039915 5.994341
2006-07-03 09:59:40 51°16.293 2°53.095 24.7832 0.007472 0.039915 6.02805
2006-07-03 09:59:45 51°16.292 2°53.093 24.7803 0.007472 0.039915 6.02805
2006-07-03 09:59:50 51°16.292 2°53.09 24.773 0.007472 0.039916 5.994341
2006-07-03 09:59:54 51°16.291 2°53.088 24.769 0.007472 0.039916 6.02805
2006-07-03 10:00:00 51°16.29 2°53.085 24.7938 0.007472 0.039916 6.02805
2006-07-03 10:00:05 51°16.29 2°53.083 24.787 0.007472 0.039916 5.994341
2006-07-03 10:00:10 51°16.289 2°53.08 24.7835 0.007472 0.039917 5.994341
2006-07-03 10:00:14 51°16.289 2°53.078 24.7997 0.007472 0.039917 5.994341
2006-07-03 10:00:20 51°16.288 2°53.075 24.7915 0.007472 0.039917 6.02805
2006-07-03 10:00:24 51°16.288 2°53.073 24.7802 0.007472 0.039917 5.994341
2006-07-03 10:00:30 51°16.287 2°53.07 24.7849 0.007472 0.039918 5.994341
2006-07-03 10:00:33 51°16.287 2°53.069 24.7915 0.007472 0.039918 6.02805
2006-07-03 10:00:39 51°16.286 2°53.066 24.8098 0.007472 0.039919 6.02805
2006-07-03 10:00:45 51°16.286 2°53.063 24.7845 0.007472 0.039919 6.02805
2006-07-03 10:00:50 51°16.285 2°53.06 24.7913 0.007472 0.039919 5.994341
2006-07-03 10:00:54 51°16.284 2°53.058 24.7777 0.007472 0.039919 6.02805
2006-07-03 10:01:00 51°16.284 2°53.055 24.7794 0.007472 0.039919 6.02805
2006-07-03 10:01:05 51°16.283 2°53.052 24.8028 0.007472 0.039919 6.02805
2006-07-03 10:01:10 51°16.282 2°53.05 24.8083 0.007472 0.03992 5.994341
2006-07-03 10:01:15 51°16.282 2°53.048 24.8198 0.007472 0.03992 5.994341
2006-07-03 10:01:20 51°16.281 2°53.045 24.8141 0.007472 0.03992 5.994341
2006-07-03 10:01:25 51°16.281 2°53.043 24.7981 0.007472 0.03992 6.02805
2006-07-03 10:01:30 51°16.28 2°53.04 24.8048 0.007472 0.03992 5.994341
2006-07-03 10:01:33 51°16.28 2°53.038 24.7867 0.007472 0.039921 5.994341
2006-07-03 10:01:40 51°16.279 2°53.035 24.8084 0.007472 0.039921 6.02805
2006-07-03 10:01:45 51°16.278 2°53.032 24.8078 0.007472 0.039921 6.02805
2006-07-03 10:01:50 51°16.278 2°53.03 24.7952 0.007472 0.039921 6.02805
2006-07-03 10:01:54 51°16.277 2°53.028 24.8192 0.007472 0.039922 6.02805
2006-07-03 10:01:59 51°16.277 2°53.025 24.8228 0.007472 0.039922 6.02805
2006-07-03 10:02:05 51°16.276 2°53.022 24.8038 0.007472 0.039922 5.994341
2006-07-03 10:02:10 51°16.276 2°53.02 24.7954 0.007472 0.039923 6.061759
2006-07-03 10:02:15 51°16.275 2°53.017 24.807 0.007472 0.039923 6.061759
2006-07-03 10:02:20 51°16.275 2°53.015 24.8129 0.007472 0.039923 6.02805
2006-07-03 10:02:25 51°16.274 2°53.012 24.8058 0.007472 0.039923 5.994341
2006-07-03 10:02:30 51°16.273 2°53.01 24.8082 0.007472 0.039924 5.994341
2006-07-03 10:02:34 51°16.273 2°53.008 24.7859 0.007472 0.039923 6.02805
2006-07-03 10:02:40 51°16.272 2°53.005 24.8119 0.007472 0.039924 6.02805
2006-07-03 10:02:44 51°16.272 2°53.003 24.812 0.007472 0.039924 6.02805
2006-07-03 10:02:50 51°16.271 2°53 24.8172 0.007472 0.039924 6.02805
2006-07-03 10:02:54 51°16.27 2°52.997 24.8183 0.007472 0.039925 6.02805
2006-07-03 10:03:00 51°16.269 2°52.994 24.812 0.007472 0.039925 5.994341
2006-07-03 10:03:05 51°16.269 2°52.992 24.8137 0.007472 0.039925 5.994341
2006-07-03 10:03:10 51°16.268 2°52.989 24.8133 0.007472 0.039925 6.061759
2006-07-03 10:03:15 51°16.268 2°52.986 24.8049 0.007472 0.039925 6.061759
2006-07-03 10:03:20 51°16.267 2°52.984 24.7954 0.007472 0.039925 5.994341
2006-07-03 10:03:25 51°16.266 2°52.981 24.8117 0.007472 0.039926 5.994341
2006-07-03 10:03:30 51°16.266 2°52.978 24.8195 0.007472 0.039926 5.994341
2006-07-03 10:03:35 51°16.265 2°52.976 24.8278 0.007472 0.039927 5.994341
2006-07-03 10:03:40 51°16.265 2°52.973 24.8278 0.007472 0.039927 6.02805
2006-07-03 10:03:45 51°16.264 2°52.971 24.8279 0.007472 0.039927 6.02805
2006-07-03 10:03:50 51°16.263 2°52.968 24.8287 0.007472 0.039927 5.994341
2006-07-03 10:03:56 51°16.263 2°52.965 24.8267 0.007472 0.039928 6.02805
2006-07-03 10:04:00 51°16.262 2°52.963 24.7975 0.007472 0.039928 6.02805
2006-07-03 10:04:05 51°16.261 2°52.96 24.8186 0.007472 0.039928 6.02805
2006-07-03 10:04:10 51°16.261 2°52.958 24.815 0.007472 0.039928 6.02805
2006-07-03 10:04:15 51°16.26 2°52.955 24.8239 0.007472 0.039928 6.02805
2006-07-03 10:04:20 51°16.26 2°52.952 24.8242 0.007472 0.039929 6.02805
2006-07-03 10:04:25 51°16.259 2°52.95 24.8218 0.007472 0.039929 5.994341
2006-07-03 10:04:30 51°16.258 2°52.947 24.8323 0.007472 0.039929 6.061759
2006-07-03 10:04:35 51°16.257 2°52.945 24.8508 0.007472 0.03993 5.994341
2006-07-03 10:04:40 51°16.257 2°52.942 24.8612 0.007472 0.03993 5.994341
2006-07-03 10:04:45 51°16.256 2°52.94 24.8475 0.007472 0.03993 5.994341
2006-07-03 10:04:50 51°16.256 2°52.937 24.8524 0.007472 0.03993 5.994341
2006-07-03 10:04:55 51°16.255 2°52.935 24.839 0.007472 0.039931 6.02805
2006-07-03 10:05:00 51°16.254 2°52.932 24.8306 0.007472 0.039931 6.02805
2006-07-03 10:05:04 51°16.254 2°52.93 24.8464 0.007472 0.039931 6.02805
2006-07-03 10:05:10 51°16.253 2°52.927 24.8277 0.007472 0.039931 6.02805
2006-07-03 10:05:14 51°16.253 2°52.925 24.8131 0.007472 0.039931 6.02805
2006-07-03 10:05:20 51°16.252 2°52.922 24.8072 0.007472 0.039931 6.02805
2006-07-03 10:05:25 51°16.251 2°52.919 24.8478 0.007472 0.039932 6.02805
2006-07-03 10:05:30 51°16.251 2°52.916 24.842 0.007472 0.039932 6.02805
2006-07-03 10:05:34 51°16.25 2°52.914 24.8458 0.007472 0.039933 6.02805
2006-07-03 10:05:40 51°16.249 2°52.912 24.7939 0.007472 0.039933 5.994341
2006-07-03 10:05:45 51°16.249 2°52.909 24.7955 0.007472 0.039933 5.994341
2006-07-03 10:05:50 51°16.248 2°52.907 24.8163 0.007472 0.039933 5.994341
2006-07-03 10:05:55 51°16.248 2°52.904 24.835 0.007472 0.039933 6.02805
2006-07-03 10:06:00 51°16.247 2°52.902 24.8109 0.007472 0.039934 5.994341
2006-07-03 10:06:05 51°16.246 2°52.899 24.8248 0.007472 0.039934 6.02805
2006-07-03 10:06:10 51°16.246 2°52.896 24.8357 0.007472 0.039934 6.02805
2006-07-03 10:06:14 51°16.245 2°52.895 24.8049 0.007472 0.039934 6.02805
2006-07-03 10:06:20 51°16.244 2°52.892 24.7848 0.007472 0.039935 6.02805
2006-07-03 10:06:24 51°16.243 2°52.89 24.8286 0.007472 0.039934 5.994341
2006-07-03 10:06:30 51°16.242 2°52.887 24.8053 0.007472 0.039935 6.061759
2006-07-03 10:06:34 51°16.242 2°52.885 24.812 0.007472 0.039935 6.02805
2006-07-03 10:06:40 51°16.242 2°52.882 24.802 0.007472 0.039935 6.02805
2006-07-03 10:06:45 51°16.241 2°52.88 24.7892 0.007472 0.039935 6.02805
2006-07-03 10:06:50 51°16.24 2°52.877 24.8087 0.007472 0.039936 6.02805
2006-07-03 10:06:55 51°16.239 2°52.875 24.8036 0.007472 0.039936 6.02805
2006-07-03 10:07:00 51°16.239 2°52.872 24.822 0.007472 0.039936 6.02805
2006-07-03 10:07:05 51°16.238 2°52.87 24.8293 0.007472 0.039937 6.02805
2006-07-03 10:07:10 51°16.237 2°52.867 24.8228 0.007472 0.039937 6.02805
2006-07-03 10:07:14 51°16.236 2°52.865 24.828 0.007472 0.039937 6.02805
2006-07-03 10:07:20 51°16.236 2°52.863 24.8168 0.007472 0.039937 6.02805
2006-07-03 10:07:25 51°16.235 2°52.86 24.8242 0.007472 0.039937 6.02805
2006-07-03 10:07:30 51°16.234 2°52.858 24.8118 0.007472 0.039937 6.02805
2006-07-03 10:07:35 51°16.233 2°52.855 24.8216 0.007472 0.039938 5.994341
2006-07-03 10:07:39 51°16.233 2°52.853 24.8464 0.007472 0.039938 5.994341
2006-07-03 10:07:45 51°16.232 2°52.85 24.8333 0.007472 0.039938 5.994341
2006-07-03 10:07:50 51°16.231 2°52.848 24.8276 0.007472 0.039938 6.061759
2006-07-03 10:07:54 51°16.231 2°52.846 24.836 0.007472 0.039938 6.02805
2006-07-03 10:08:00 51°16.23 2°52.843 24.8173 0.007472 0.039938 6.02805
2006-07-03 10:08:05 51°16.229 2°52.84 24.8098 0.007472 0.039939 6.02805
2006-07-03 10:08:10 51°16.228 2°52.838 24.8103 0.007472 0.039939 6.061759
2006-07-03 10:08:15 51°16.227 2°52.835 24.8105 0.007472 0.039939 6.061759
2006-07-03 10:08:20 51°16.227 2°52.833 24.8358 0.007472 0.039939 6.02805
2006-07-03 10:08:25 51°16.226 2°52.83 24.834 0.007472 0.039939 6.061759
2006-07-03 10:08:30 51°16.225 2°52.828 24.8394 0.007472 0.03994 6.02805
2006-07-03 10:08:35 51°16.225 2°52.825 24.8285 0.007472 0.03994 5.994341
2006-07-03 10:08:40 51°16.224 2°52.823 24.8398 0.007472 0.03994 6.02805
2006-07-03 10:08:45 51°16.223 2°52.82 24.8262 0.007472 0.03994 6.02805
2006-07-03 10:08:50 51°16.222 2°52.818 24.8549 0.007472 0.03994 6.02805
2006-07-03 10:08:55 51°16.222 2°52.815 24.8555 0.007472 0.039941 6.061759
2006-07-03 10:09:00 51°16.221 2°52.813 24.846 0.007472 0.039941 6.02805
2006-07-03 10:09:05 51°16.22 2°52.81 24.8548 0.007472 0.039941 5.994341
2006-07-03 10:09:10 51°16.219 2°52.808 24.855 0.007472 0.039941 6.061759
2006-07-03 10:09:14 51°16.219 2°52.806 24.8604 0.007472 0.039941 6.061759
2006-07-03 10:09:20 51°16.218 2°52.803 24.8598 0.007472 0.039942 6.061759
2006-07-03 10:09:25 51°16.218 2°52.8 24.857 0.007472 0.039942 6.02805
2006-07-03 10:09:30 51°16.217 2°52.797 24.8712 0.007472 0.039942 6.095469
2006-07-03 10:09:34 51°16.217 2°52.795 24.8641 0.007472 0.039942 6.061759
2006-07-03 10:09:40 51°16.217 2°52.791 24.8477 0.007472 0.039943 6.02805
2006-07-03 10:09:45 51°16.218 2°52.788 24.8501 0.007472 0.039943 6.02805
2006-07-03 10:09:50 51°16.219 2°52.784 24.8431 0.007472 0.039943 6.061759
2006-07-03 10:09:54 51°16.221 2°52.781 24.8148 0.007472 0.039943 5.994341
2006-07-03 10:10:00 51°16.223 2°52.777 24.7973 0.007472 0.039944 6.061759
2006-07-03 10:10:05 51°16.226 2°52.773 24.8434 0.007472 0.039944 6.02805
2006-07-03 10:10:10 51°16.229 2°52.77 24.7941 0.007472 0.039944 6.02805
2006-07-03 10:10:14 51°16.232 2°52.769 24.7931 0.007472 0.039944 6.02805
2006-07-03 10:10:20 51°16.236 2°52.766 24.8123 0.007472 0.039944 6.02805
2006-07-03 10:10:25 51°16.24 2°52.765 24.8144 0.007472 0.039944 6.02805
2006-07-03 10:10:30 51°16.244 2°52.764 24.8001 0.007472 0.039945 6.02805
2006-07-03 10:10:35 51°16.248 2°52.764 24.8157 0.007472 0.039945 6.02805
2006-07-03 10:10:40 51°16.252 2°52.764 24.8232 0.007472 0.039946 6.061759
2006-07-03 10:10:45 51°16.257 2°52.766 24.8333 0.007472 0.039946 6.061759
2006-07-03 10:10:50 51°16.261 2°52.767 24.832 0.007472 0.039946 6.061759
2006-07-03 10:10:55 51°16.265 2°52.77 24.8365 0.007472 0.039946 6.02805
2006-07-03 10:11:00 51°16.269 2°52.774 24.831 0.007472 0.039946 6.061759
2006-07-03 10:11:04 51°16.272 2°52.777 24.8112 0.007472 0.039947 6.061759
2006-07-03 10:11:10 51°16.276 2°52.782 24.8092 0.007472 0.039947 5.994341
2006-07-03 10:11:14 51°16.279 2°52.787 24.7701 0.007472 0.039947 5.994341
2006-07-03 10:11:20 51°16.282 2°52.794 24.8004 0.007472 0.039947 6.02805
2006-07-03 10:11:25 51°16.284 2°52.8 24.7903 0.007472 0.039947 6.02805
2006-07-03 10:11:30 51°16.285 2°52.806 24.7789 0.007472 0.039948 6.02805
2006-07-03 10:11:35 51°16.286 2°52.813 24.8289 0.007472 0.039948 6.061759
2006-07-03 10:11:40 51°16.285 2°52.82 24.8456 0.007472 0.039948 6.02805
2006-07-03 10:11:45 51°16.285 2°52.827 24.8668 0.007472 0.039948 6.02805
2006-07-03 10:11:50 51°16.284 2°52.834 24.8708 0.007472 0.039948 6.061759
2006-07-03 10:11:55 51°16.282 2°52.841 24.8803 0.007472 0.039949 6.061759
2006-07-03 10:12:00 51°16.28 2°52.848 24.8908 0.007472 0.039949 6.061759
2006-07-03 10:12:05 51°16.277 2°52.855 24.8868 0.007472 0.039949 6.02805
2006-07-03 10:12:10 51°16.275 2°52.862 24.8751 0.007472 0.03995 6.061759
2006-07-03 10:12:14 51°16.272 2°52.868 24.8867 0.007472 0.03995 6.061759
2006-07-03 10:12:19 51°16.269 2°52.876 24.8619 0.007472 0.03995 6.02805
2006-07-03 10:12:25 51°16.265 2°52.885 24.892 0.007472 0.03995 6.061759
2006-07-03 10:12:30 51°16.262 2°52.893 24.8786 0.007472 0.039951 6.061759
2006-07-03 10:12:35 51°16.258 2°52.9 24.8871 0.007472 0.039951 6.02805
2006-07-03 10:12:40 51°16.255 2°52.909 24.8905 0.007472 0.039951 6.061759
2006-07-03 10:12:44 51°16.252 2°52.915 24.8919 0.007472 0.039951 6.061759
2006-07-03 10:12:50 51°16.248 2°52.925 24.8915 0.007472 0.039951 6.02805
2006-07-03 10:12:54 51°16.245 2°52.932 24.892 0.007472 0.039951 6.061759
2006-07-03 10:13:01 51°16.24 2°52.944 24.8964 0.007472 0.039952 6.061759
2006-07-03 10:13:04 51°16.238 2°52.95 24.8927 0.007472 0.039952 6.02805
2006-07-03 10:13:09 51°16.234 2°52.959 24.8987 0.007472 0.039952 5.994341
2006-07-03 10:13:14 51°16.231 2°52.968 24.91 0.007472 0.039952 5.994341
2006-07-03 10:13:20 51°16.228 2°52.979 24.8981 0.007472 0.039952 6.061759
2006-07-03 10:13:25 51°16.225 2°52.989 24.886 0.007472 0.039952 6.061759
2006-07-03 10:13:30 51°16.223 2°52.999 24.9055 0.007472 0.039952 6.02805
2006-07-03 10:13:34 51°16.221 2°53.007 24.8862 0.007472 0.039953 6.061759
2006-07-03 10:13:40 51°16.219 2°53.018 24.892 0.007472 0.039952 6.061759
2006-07-03 10:13:45 51°16.217 2°53.028 24.8976 0.007472 0.039952 6.061759
2006-07-03 10:13:50 51°16.215 2°53.038 24.9026 0.007472 0.039953 6.061759
2006-07-03 10:13:54 51°16.214 2°53.046 24.89 0.007472 0.039953 6.061759
2006-07-03 10:14:00 51°16.212 2°53.059 24.8942 0.007472 0.039953 6.061759
2006-07-03 10:14:05 51°16.211 2°53.069 24.89 0.007472 0.039953 6.061759
2006-07-03 10:14:10 51°16.21 2°53.08 24.8815 0.007472 0.039953 6.02805